Time,TemperatureF,DewpointF,PressureIn,WindDirection,WindDirectionDegrees,WindSpeedMPH,WindSpeedGustMPH,Humidity,HourlyPrecipIn,Conditions,Clouds,dailyrainin,SoftwareType,DateUTC
2013-08-13 00:00:00,82.0,76.0,29.87,East,90,0.0,0.0,82,0.00,,---,0.00,VWS V14.01,2013-08-13 04:00:00,
2013-08-13 00:10:00,81.8,76.1,29.87,East,90,0.0,0.0,83,0.00,,---,0.00,VWS V14.01,2013-08-13 04:10:00,
2013-08-13 00:20:00,81.6,75.9,29.88,ESE,112,0.0,1.0,83,0.00,,---,0.00,VWS V14.01,2013-08-13 04:20:00,
2013-08-13 00:30:00,81.6,76.7,29.88,ESE,112,0.0,0.0,85,0.00,,---,0.00,VWS V14.01,2013-08-13 04:30:00,
2013-08-13 00:40:00,81.4,76.5,29.88,ESE,112,0.0,0.0,85,0.00,,---,0.00,VWS V14.01,2013-08-13 04:40:00,
2013-08-13 00:50:00,81.2,75.6,29.89,ESE,112,0.0,0.0,83,0.00,,---,0.00,VWS V14.01,2013-08-13 04:50:00,
2013-08-13 01:00:00,81.2,76.3,29.88,ESE,112,0.0,0.0,85,0.00,,---,0.00,VWS V14.01,2013-08-13 05:00:00,
2013-08-13 01:10:00,81.2,76.6,29.88,ESE,112,0.0,0.0,86,0.00,,---,0.00,VWS V14.01,2013-08-13 05:10:00,
2013-08-13 01:20:00,81.1,76.5,29.87,ESE,112,0.0,0.0,86,0.00,,---,0.00,VWS V14.01,2013-08-13 05:20:00,
2013-08-13 01:30:00,81.1,76.2,29.86,ESE,112,0.0,0.0,85,0.00,,---,0.00,VWS V14.01,2013-08-13 05:30:00,
2013-08-13 01:40:00,80.9,76.7,29.86,ESE,112,0.0,0.0,87,0.00,,---,0.00,VWS V14.01,2013-08-13 05:40:00,
2013-08-13 01:50:00,80.9,76.7,29.86,ESE,112,0.0,0.0,87,0.00,,---,0.00,VWS V14.01,2013-08-13 05:50:00,
2013-08-13 02:00:00,80.9,76.7,29.87,ESE,112,0.0,0.0,87,0.00,,---,0.00,VWS V14.01,2013-08-13 06:00:00,
2013-08-13 02:10:00,80.9,76.7,29.87,ESE,112,0.0,0.0,87,0.00,,---,0.00,VWS V14.01,2013-08-13 06:10:00,
2013-08-13 02:20:00,80.7,76.5,29.87,ESE,112,0.0,0.0,87,0.00,,---,0.00,VWS V14.01,2013-08-13 06:20:00,
2013-08-13 02:30:00,80.7,76.8,29.86,ESE,112,0.0,0.0,88,0.00,,---,0.00,VWS V14.01,2013-08-13 06:30:00,
2013-08-13 02:40:00,80.7,77.2,29.86,ESE,112,0.0,0.0,89,0.00,,---,0.00,VWS V14.01,2013-08-13 06:40:00,
2013-08-13 02:50:00,80.5,76.6,29.86,ESE,112,0.0,0.0,88,0.00,,---,0.00,VWS V14.01,2013-08-13 06:50:00,
2013-08-13 03:00:00,80.3,76.8,29.86,ESE,112,0.0,0.0,89,0.00,,---,0.00,VWS V14.01,2013-08-13 07:00:00,
2013-08-13 03:10:00,80.1,76.6,29.86,ESE,112,0.0,0.0,89,0.00,,---,0.00,VWS V14.01,2013-08-13 07:10:00,
2013-08-13 03:20:00,79.9,75.7,29.85,ESE,112,0.0,0.0,87,0.00,,---,0.00,VWS V14.01,2013-08-13 07:20:00,
2013-08-13 03:30:00,79.8,76.6,29.85,ESE,112,0.0,0.0,90,0.00,,---,0.00,VWS V14.01,2013-08-13 07:30:00,
2013-08-13 03:40:00,79.6,76.1,29.85,ESE,112,0.0,0.0,89,0.00,,---,0.00,VWS V14.01,2013-08-13 07:40:00,
2013-08-13 03:50:00,79.4,75.9,29.85,ESE,112,0.0,0.0,89,0.00,,---,0.00,VWS V14.01,2013-08-13 07:50:00,
2013-08-13 04:00:00,79.2,75.0,29.84,ESE,112,0.0,0.0,87,0.00,,---,0.00,VWS V14.01,2013-08-13 08:00:00,
2013-08-13 04:10:00,79.0,75.2,29.84,ESE,112,0.0,0.0,88,0.00,,---,0.00,VWS V14.01,2013-08-13 08:10:00,
2013-08-13 04:20:00,79.0,75.2,29.84,ESE,112,0.0,0.0,88,0.00,,---,0.00,VWS V14.01,2013-08-13 08:20:00,
2013-08-13 04:30:00,78.8,74.6,29.83,ESE,112,0.0,0.0,87,0.00,,---,0.00,VWS V14.01,2013-08-13 08:30:00,
2013-08-13 04:40:00,78.8,75.3,29.83,ESE,112,0.0,0.0,89,0.00,,---,0.00,VWS V14.01,2013-08-13 08:40:00,
2013-08-13 04:50:00,78.6,74.8,29.84,ESE,112,0.0,0.0,88,0.00,,---,0.00,VWS V14.01,2013-08-13 08:50:00,
2013-08-13 05:00:00,78.6,75.1,29.84,ESE,112,0.0,0.0,89,0.00,,---,0.00,VWS V14.01,2013-08-13 09:00:00,
2013-08-13 05:10:00,78.5,75.0,29.84,ESE,112,0.0,0.0,89,0.00,,---,0.00,VWS V14.01,2013-08-13 09:10:00,
2013-08-13 05:20:00,78.3,74.8,29.84,ESE,112,0.0,0.0,89,0.00,,---,0.00,VWS V14.01,2013-08-13 09:20:00,
2013-08-13 05:30:00,78.1,73.9,29.84,ESE,112,0.0,0.0,87,0.00,,---,0.00,VWS V14.01,2013-08-13 09:30:00,
2013-08-13 05:40:00,77.9,74.1,29.84,ESE,112,0.0,0.0,88,0.00,,---,0.00,VWS V14.01,2013-08-13 09:40:00,
2013-08-13 05:50:00,77.9,74.4,29.84,ESE,112,0.0,0.0,89,0.00,,---,0.00,VWS V14.01,2013-08-13 09:50:00,
2013-08-13 06:00:00,77.9,74.4,29.83,ESE,112,0.0,0.0,89,0.00,,---,0.00,VWS V14.01,2013-08-13 10:00:00,
2013-08-13 06:10:00,77.9,74.4,29.83,ESE,112,0.0,0.0,89,0.00,,---,0.00,VWS V14.01,2013-08-13 10:10:00,
2013-08-13 06:20:00,77.7,74.5,29.83,ESE,112,0.0,0.0,90,0.00,,---,0.00,VWS V14.01,2013-08-13 10:20:00,
2013-08-13 06:30:00,77.7,74.9,29.83,ESE,112,0.0,0.0,91,0.00,,---,0.00,VWS V14.01,2013-08-13 10:30:00,
2013-08-13 06:40:00,77.7,75.2,29.83,ESE,112,0.0,0.0,92,0.00,,---,0.00,VWS V14.01,2013-08-13 10:40:00,
2013-08-13 06:50:00,77.9,75.7,29.83,ESE,112,0.0,0.0,93,0.00,,---,0.00,VWS V14.01,2013-08-13 10:50:00,
2013-08-13 07:00:00,77.9,76.4,29.83,ESE,112,0.0,0.0,95,0.00,,---,0.00,VWS V14.01,2013-08-13 11:00:00,
2013-08-13 07:10:00,78.1,76.6,29.83,ESE,112,0.0,0.0,95,0.00,,---,0.00,VWS V14.01,2013-08-13 11:10:00,
2013-08-13 07:20:00,78.1,76.9,29.83,ESE,112,0.0,0.0,96,0.00,,---,0.00,VWS V14.01,2013-08-13 11:20:00,
2013-08-13 07:30:00,78.3,76.8,29.83,ESE,112,0.0,0.0,95,0.00,,---,0.00,VWS V14.01,2013-08-13 11:30:00,
2013-08-13 07:40:00,78.5,76.9,29.83,ESE,112,0.0,0.0,95,0.00,,---,0.00,VWS V14.01,2013-08-13 11:40:00,
2013-08-13 07:50:00,78.5,76.9,29.83,NW,315,0.0,1.0,95,0.00,,---,0.00,VWS V14.01,2013-08-13 11:50:00,
2013-08-13 08:00:00,78.6,77.1,29.83,WSW,248,0.0,6.0,95,0.00,,---,0.00,VWS V14.01,2013-08-13 12:00:00,
2013-08-13 08:10:00,79.0,77.1,29.83,West,270,0.0,3.0,94,0.00,,---,0.00,VWS V14.01,2013-08-13 12:10:00,
2013-08-13 08:20:00,79.2,76.7,29.83,WNW,292,0.0,2.0,92,0.00,,---,0.00,VWS V14.01,2013-08-13 12:20:00,
2013-08-13 08:30:00,79.6,77.1,29.83,WSW,248,0.0,1.0,92,0.00,,---,0.00,VWS V14.01,2013-08-13 12:30:00,
2013-08-13 08:40:00,80.1,76.9,29.83,NNW,338,0.0,2.0,90,0.00,,---,0.00,VWS V14.01,2013-08-13 12:40:00,
2013-08-13 08:50:00,80.5,76.6,29.84,SW,225,0.0,6.0,88,0.00,,---,0.00,VWS V14.01,2013-08-13 12:50:00,
2013-08-13 09:00:00,80.7,76.8,29.84,NNW,338,0.0,4.0,88,0.00,,---,0.00,VWS V14.01,2013-08-13 13:00:00,
2013-08-13 09:10:00,80.9,76.7,29.84,WNW,292,0.0,2.0,87,0.00,,---,0.00,VWS V14.01,2013-08-13 13:10:00,
2013-08-13 09:20:00,81.2,76.6,29.85,WNW,292,1.0,8.0,86,0.00,,---,0.00,VWS V14.01,2013-08-13 13:20:00,
2013-08-13 09:30:00,81.6,75.9,29.84,West,270,0.0,2.0,83,0.00,,---,0.00,VWS V14.01,2013-08-13 13:30:00,
2013-08-13 09:40:00,82.0,76.3,29.84,WSW,248,1.0,8.0,83,0.00,,---,0.00,VWS V14.01,2013-08-13 13:40:00,
2013-08-13 09:50:00,82.2,76.2,29.84,WNW,292,1.0,6.0,82,0.00,,---,0.00,VWS V14.01,2013-08-13 13:50:00,
2013-08-13 10:00:00,83.0,76.9,29.84,WNW,292,0.0,3.0,82,0.00,,---,0.00,VWS V14.01,2013-08-13 14:00:00,
2013-08-13 10:10:00,83.8,75.8,29.84,SSW,202,0.0,5.0,77,0.00,,---,0.00,VWS V14.01,2013-08-13 14:10:00,
2013-08-13 10:20:00,84.5,76.9,29.84,WNW,292,0.0,3.0,78,0.00,,---,0.00,VWS V14.01,2013-08-13 14:20:00,
2013-08-13 10:30:00,85.3,76.1,29.84,WSW,248,0.0,5.0,74,0.00,,---,0.00,VWS V14.01,2013-08-13 14:30:00,
2013-08-13 10:40:00,85.9,76.2,29.84,SW,225,0.0,6.0,73,0.00,,---,0.00,VWS V14.01,2013-08-13 14:40:00,
2013-08-13 10:50:00,86.5,76.4,29.84,NNW,338,0.0,4.0,72,0.00,,---,0.00,VWS V14.01,2013-08-13 14:50:00,
2013-08-13 11:00:00,87.2,77.1,29.84,SW,225,1.0,6.0,72,0.00,,---,0.00,VWS V14.01,2013-08-13 15:00:00,
2013-08-13 11:10:00,87.4,76.0,29.84,SSW,202,1.0,6.0,69,0.00,,---,0.00,VWS V14.01,2013-08-13 15:10:00,
2013-08-13 11:20:00,88.0,76.6,29.84,SW,225,1.0,8.0,69,0.00,,---,0.00,VWS V14.01,2013-08-13 15:20:00,
2013-08-13 11:30:00,88.6,76.2,29.84,SW,225,1.0,6.0,67,0.00,,---,0.00,VWS V14.01,2013-08-13 15:30:00,
2013-08-13 11:40:00,89.5,76.7,29.84,NW,315,1.0,7.0,66,0.00,,---,0.00,VWS V14.01,2013-08-13 15:40:00,
2013-08-13 11:50:00,89.9,76.6,29.84,WNW,292,1.0,6.0,65,0.00,,---,0.00,VWS V14.01,2013-08-13 15:50:00,
2013-08-13 12:00:00,90.3,76.0,29.83,WSW,248,1.0,8.0,63,0.00,,---,0.00,VWS V14.01,2013-08-13 16:00:00,
2013-08-13 12:10:00,90.7,74.9,29.83,SW,225,1.0,5.0,60,0.00,,---,0.00,VWS V14.01,2013-08-13 16:10:00,
2013-08-13 12:29:00,90.7,74.9,29.83,SW,225,1.0,5.0,60,0.00,,---,0.00,VWS V14.01,2013-08-13 16:29:00,
2013-08-13 12:30:00,92.1,74.7,29.81,East,100,0.0,1.0,57,0.00,,---,0.00,VWS V14.01,2013-08-13 16:30:00,
2013-08-13 12:31:00,92.3,75.9,29.81,North,0,0.0,0.0,59,0.00,,---,0.00,VWS V14.01,2013-08-13 16:31:00,
2013-08-13 12:32:00,92.3,75.9,29.81,South,175,0.0,3.0,59,0.00,,---,0.00,VWS V14.01,2013-08-13 16:32:00,
2013-08-13 12:33:00,92.5,75.6,29.81,NE,45,0.0,3.0,58,0.00,,---,0.00,VWS V14.01,2013-08-13 16:33:00,
2013-08-13 12:34:00,92.5,75.6,29.81,NE,55,0.0,3.0,58,0.00,,---,0.00,VWS V14.01,2013-08-13 16:34:00,
2013-08-13 12:35:00,92.5,75.6,29.81,SSE,152,2.0,5.0,58,0.00,,---,0.00,VWS V14.01,2013-08-13 16:35:00,
2013-08-13 12:36:00,92.5,74.5,29.81,WNW,296,3.0,5.0,56,0.00,,---,0.00,VWS V14.01,2013-08-13 16:36:00,
2013-08-13 12:37:00,92.5,75.1,29.81,WSW,243,0.0,5.0,57,0.00,,---,0.00,VWS V14.01,2013-08-13 16:37:00,
2013-08-13 12:38:00,92.5,75.1,29.81,SSE,168,0.0,6.0,57,0.00,,---,0.00,VWS V14.01,2013-08-13 16:38:00,
2013-08-13 12:39:00,92.5,74.5,29.81,SW,226,0.0,6.0,56,0.00,,---,0.00,VWS V14.01,2013-08-13 16:39:00,
2013-08-13 12:40:00,92.5,74.5,29.81,WNW,285,0.0,6.0,56,0.00,,---,0.00,VWS V14.01,2013-08-13 16:40:00,
2013-08-13 12:41:00,92.5,74.5,29.81,SSW,193,0.0,0.0,56,0.00,,---,0.00,VWS V14.01,2013-08-13 16:41:00,
2013-08-13 12:42:00,92.5,75.1,29.81,SSE,155,0.0,0.0,57,0.00,,---,0.00,VWS V14.01,2013-08-13 16:42:00,
2013-08-13 12:43:00,92.5,75.6,29.81,SSE,155,0.0,0.0,58,0.00,,---,0.00,VWS V14.01,2013-08-13 16:43:00,
2013-08-13 12:44:00,92.5,76.1,29.81,North,359,0.0,0.0,59,0.00,,---,0.00,VWS V14.01,2013-08-13 16:44:00,
2013-08-13 12:45:00,92.5,76.1,29.80,SSW,202,0.0,0.0,59,0.00,,---,0.00,VWS V14.01,2013-08-13 16:45:00,
2013-08-13 12:46:00,92.5,75.6,29.80,North,354,2.0,2.0,58,0.00,,---,0.00,VWS V14.01,2013-08-13 16:46:00,
2013-08-13 12:47:00,92.5,76.6,29.80,SW,217,2.0,2.0,60,0.00,,---,0.00,VWS V14.01,2013-08-13 16:47:00,
2013-08-13 12:48:00,92.5,75.6,29.80,NW,306,3.0,3.0,58,0.00,,---,0.00,VWS V14.01,2013-08-13 16:48:00,
2013-08-13 12:49:00,92.5,75.1,29.80,South,175,0.0,3.0,57,0.00,,---,0.00,VWS V14.01,2013-08-13 16:49:00,
2013-08-13 12:50:00,92.5,75.1,29.80,West,281,0.0,3.0,57,0.00,,---,0.00,VWS V14.01,2013-08-13 16:50:00,
2013-08-13 12:51:00,92.5,75.1,29.80,West,281,0.0,0.0,57,0.00,,---,0.00,VWS V14.01,2013-08-13 16:51:00,
2013-08-13 12:52:00,92.5,75.1,29.80,North,6,0.0,0.0,57,0.00,,---,0.00,VWS V14.01,2013-08-13 16:52:00,
2013-08-13 12:55:00,92.7,76.3,29.80,ESE,106,0.0,5.0,59,0.00,,---,0.00,VWS V14.01,2013-08-13 16:55:00,
2013-08-13 12:56:00,92.7,76.3,29.80,ESE,106,0.0,5.0,59,0.00,,---,0.00,VWS V14.01,2013-08-13 16:56:00,
2013-08-13 12:57:00,92.9,75.4,29.80,East,88,0.0,5.0,57,0.00,,---,0.00,VWS V14.01,2013-08-13 16:57:00,
2013-08-13 12:58:00,92.9,75.9,29.80,WSW,256,0.0,5.0,58,0.00,,---,0.00,VWS V14.01,2013-08-13 16:58:00,
2013-08-13 12:59:00,92.9,75.9,29.80,WSW,256,0.0,5.0,58,0.00,,---,0.00,VWS V14.01,2013-08-13 16:59:00,
2013-08-13 13:00:00,92.9,75.9,29.79,NW,312,0.0,5.0,58,0.00,,---,0.00,VWS V14.01,2013-08-13 17:00:00,
2013-08-13 13:01:00,92.9,75.9,29.79,North,0,0.0,0.0,58,0.00,,---,0.00,VWS V14.01,2013-08-13 17:01:00,
2013-08-13 13:02:00,92.9,74.9,29.79,NW,323,0.0,1.0,56,0.00,,---,0.00,VWS V14.01,2013-08-13 17:02:00,
2013-08-13 13:03:00,92.9,75.4,29.79,NW,325,0.0,1.0,57,0.00,,---,0.00,VWS V14.01,2013-08-13 17:03:00,
2013-08-13 13:04:00,92.9,75.4,29.79,North,8,0.0,5.0,57,0.00,,---,0.00,VWS V14.01,2013-08-13 17:04:00,
2013-08-13 13:05:00,92.9,75.4,29.79,WSW,254,0.0,5.0,57,0.00,,---,0.00,VWS V14.01,2013-08-13 17:05:00,
2013-08-13 13:06:00,93.2,75.2,29.79,WNW,296,1.0,5.0,56,0.00,,---,0.00,VWS V14.01,2013-08-13 17:06:00,
2013-08-13 13:07:00,93.2,75.7,29.79,WSW,237,3.0,5.0,57,0.00,,---,0.00,VWS V14.01,2013-08-13 17:07:00,
2013-08-13 13:08:00,93.2,75.7,29.79,WSW,237,0.0,5.0,57,0.00,,---,0.00,VWS V14.01,2013-08-13 17:08:00,
2013-08-13 13:09:00,93.2,76.2,29.79,WNW,298,1.0,5.0,58,0.00,,---,0.00,VWS V14.01,2013-08-13 17:09:00,
2013-08-13 13:10:00,93.4,75.9,29.79,SSW,208,1.0,5.0,57,0.00,,---,0.00,VWS V14.01,2013-08-13 17:10:00,
2013-08-13 13:11:00,93.4,75.4,29.79,NE,41,0.0,1.0,56,0.00,,---,0.00,VWS V14.01,2013-08-13 17:11:00,
2013-08-13 13:12:00,93.4,75.4,29.79,NNW,339,0.0,1.0,56,0.00,,---,0.00,VWS V14.01,2013-08-13 17:12:00,
2013-08-13 13:13:00,93.4,75.4,29.79,ESE,121,0.0,1.0,56,0.00,,---,0.00,VWS V14.01,2013-08-13 17:13:00,
2013-08-13 13:14:00,93.6,75.6,29.79,ESE,121,0.0,1.0,56,0.00,,---,0.00,VWS V14.01,2013-08-13 17:14:00,
2013-08-13 13:15:00,93.6,75.6,29.78,WSW,237,0.0,7.0,56,0.00,,---,0.00,VWS V14.01,2013-08-13 17:15:00,
2013-08-13 13:16:00,93.6,75.6,29.78,NNW,347,0.0,7.0,56,0.00,,---,0.00,VWS V14.01,2013-08-13 17:16:00,
2013-08-13 13:17:00,93.6,75.6,29.78,North,6,0.0,7.0,56,0.00,,---,0.00,VWS V14.01,2013-08-13 17:17:00,
2013-08-13 13:18:00,93.6,76.1,29.78,South,181,0.0,7.0,57,0.00,,---,0.00,VWS V14.01,2013-08-13 17:18:00,
2013-08-13 13:19:00,93.6,75.6,29.78,WSW,247,0.0,7.0,56,0.00,,---,0.00,VWS V14.01,2013-08-13 17:19:00,
2013-08-13 13:20:00,93.6,76.1,29.78,SE,131,0.0,7.0,57,0.00,,---,0.00,VWS V14.01,2013-08-13 17:20:00,
2013-08-13 13:21:00,93.8,75.7,29.78,WSW,241,3.0,4.0,56,0.00,,---,0.00,VWS V14.01,2013-08-13 17:21:00,
2013-08-13 13:22:00,93.8,75.7,29.78,SW,224,0.0,5.0,56,0.00,,---,0.00,VWS V14.01,2013-08-13 17:22:00,
2013-08-13 13:23:00,93.8,75.7,29.78,WNW,299,0.0,5.0,56,0.00,,---,0.00,VWS V14.01,2013-08-13 17:23:00,
2013-08-13 13:24:00,93.8,75.2,29.78,WNW,282,0.0,8.0,55,0.00,,---,0.00,VWS V14.01,2013-08-13 17:24:00,
2013-08-13 13:25:00,93.8,75.7,29.78,West,268,2.0,8.0,56,0.00,,---,0.00,VWS V14.01,2013-08-13 17:25:00,
2013-08-13 13:26:00,93.8,75.7,29.78,SSW,202,0.0,8.0,56,0.00,,---,0.00,VWS V14.01,2013-08-13 17:26:00,
2013-08-13 13:27:00,93.8,75.7,29.78,SSW,212,0.0,8.0,56,0.00,,---,0.00,VWS V14.01,2013-08-13 17:27:00,
2013-08-13 13:28:00,93.8,75.7,29.78,SSW,212,0.0,8.0,56,0.00,,---,0.00,VWS V14.01,2013-08-13 17:28:00,
2013-08-13 13:29:00,93.8,75.7,29.78,NW,312,0.0,8.0,56,0.00,,---,0.00,VWS V14.01,2013-08-13 17:29:00,
2013-08-13 13:30:00,93.8,75.7,29.78,West,264,1.0,8.0,56,0.00,,---,0.00,VWS V14.01,2013-08-13 17:30:00,
2013-08-13 13:31:00,94.0,75.9,29.78,SSE,164,0.0,1.0,56,0.00,,---,0.00,VWS V14.01,2013-08-13 17:31:00,
2013-08-13 13:32:00,94.0,75.9,29.78,SSE,164,0.0,1.0,56,0.00,,---,0.00,VWS V14.01,2013-08-13 17:32:00,
2013-08-13 13:33:00,94.0,75.4,29.78,SW,222,4.0,8.0,55,0.00,,---,0.00,VWS V14.01,2013-08-13 17:33:00,
2013-08-13 13:34:00,94.0,75.4,29.78,East,93,0.0,8.0,55,0.00,,---,0.00,VWS V14.01,2013-08-13 17:34:00,
2013-08-13 13:35:00,94.0,76.5,29.78,NW,306,2.0,8.0,57,0.00,,---,0.00,VWS V14.01,2013-08-13 17:35:00,
2013-08-13 13:36:00,94.0,76.5,29.78,NW,311,0.0,8.0,57,0.00,,---,0.00,VWS V14.01,2013-08-13 17:36:00,
2013-08-13 13:37:00,94.0,76.5,29.78,SSW,200,0.0,8.0,57,0.00,,---,0.00,VWS V14.01,2013-08-13 17:37:00,
2013-08-13 13:38:00,94.0,76.5,29.78,SSW,200,0.0,8.0,57,0.00,,---,0.00,VWS V14.01,2013-08-13 17:38:00,
2013-08-13 13:39:00,94.0,76.5,29.78,SSW,200,0.0,8.0,57,0.00,,---,0.00,VWS V14.01,2013-08-13 17:39:00,
2013-08-13 13:40:00,94.0,76.5,29.78,WNW,292,0.0,8.0,57,0.00,,---,0.00,VWS V14.01,2013-08-13 17:40:00,
2013-08-13 13:41:00,94.0,76.5,29.78,WNW,298,0.0,0.0,57,0.00,,---,0.00,VWS V14.01,2013-08-13 17:41:00,
2013-08-13 13:42:00,94.0,75.9,29.78,WNW,298,0.0,0.0,56,0.00,,---,0.00,VWS V14.01,2013-08-13 17:42:00,
2013-08-13 13:43:00,94.0,75.9,29.78,WNW,298,0.0,0.0,56,0.00,,---,0.00,VWS V14.01,2013-08-13 17:43:00,
2013-08-13 13:44:00,94.0,77.0,29.78,WNW,287,0.0,1.0,58,0.00,,---,0.00,VWS V14.01,2013-08-13 17:44:00,
2013-08-13 13:45:00,94.0,77.0,29.78,NE,40,0.0,1.0,58,0.00,,---,0.00,VWS V14.01,2013-08-13 17:45:00,
2013-08-13 13:46:00,94.0,77.0,29.78,NE,40,0.0,1.0,58,0.00,,---,0.00,VWS V14.01,2013-08-13 17:46:00,
2013-08-13 13:47:00,94.0,77.5,29.78,SSE,151,0.0,1.0,59,0.00,,---,0.00,VWS V14.01,2013-08-13 17:47:00,
2013-08-13 13:48:00,94.0,75.9,29.78,SSW,209,0.0,3.0,56,0.00,,---,0.00,VWS V14.01,2013-08-13 17:48:00,
2013-08-13 13:49:00,94.0,75.4,29.78,SW,227,0.0,3.0,55,0.00,,---,0.00,VWS V14.01,2013-08-13 17:49:00,
2013-08-13 13:50:00,94.0,75.9,29.78,NNE,20,0.0,3.0,56,0.00,,---,0.00,VWS V14.01,2013-08-13 17:50:00,
2013-08-13 13:51:00,94.0,76.5,29.78,NNE,20,0.0,0.0,57,0.00,,---,0.00,VWS V14.01,2013-08-13 17:51:00,
2013-08-13 13:52:00,94.0,76.5,29.78,NNE,20,0.0,0.0,57,0.00,,---,0.00,VWS V14.01,2013-08-13 17:52:00,
2013-08-13 13:53:00,94.0,77.5,29.78,ENE,68,0.0,0.0,59,0.00,,---,0.00,VWS V14.01,2013-08-13 17:53:00,
2013-08-13 13:54:00,94.0,75.9,29.78,North,357,0.0,0.0,56,0.00,,---,0.00,VWS V14.01,2013-08-13 17:54:00,
2013-08-13 13:55:00,94.3,76.2,29.78,NW,318,0.0,1.0,56,0.00,,---,0.00,VWS V14.01,2013-08-13 17:55:00,
2013-08-13 13:56:00,94.3,76.2,29.78,NW,304,0.0,1.0,56,0.00,,---,0.00,VWS V14.01,2013-08-13 17:56:00,
2013-08-13 13:57:00,94.3,76.2,29.78,NNW,342,1.0,5.0,56,0.00,,---,0.00,VWS V14.01,2013-08-13 17:57:00,
2013-08-13 13:58:00,94.3,76.2,29.78,WSW,247,1.0,6.0,56,0.00,,---,0.00,VWS V14.01,2013-08-13 17:58:00,
2013-08-13 13:59:00,94.3,76.2,29.78,WSW,247,0.0,6.0,56,0.00,,---,0.00,VWS V14.01,2013-08-13 17:59:00,
2013-08-13 14:00:00,94.3,75.7,29.77,West,275,1.0,6.0,55,0.00,,---,0.00,VWS V14.01,2013-08-13 18:00:00,
2013-08-13 14:01:00,94.3,75.7,29.77,NW,320,0.0,5.0,55,0.00,,---,0.00,VWS V14.01,2013-08-13 18:01:00,
2013-08-13 14:02:00,94.3,76.2,29.77,NNE,25,0.0,5.0,56,0.00,,---,0.00,VWS V14.01,2013-08-13 18:02:00,
2013-08-13 14:03:00,94.0,75.4,29.77,SW,220,5.0,5.0,55,0.00,,---,0.00,VWS V14.01,2013-08-13 18:03:00,
2013-08-13 14:04:00,94.0,75.4,29.77,WSW,243,0.0,5.0,55,0.00,,---,0.00,VWS V14.01,2013-08-13 18:04:00,
2013-08-13 14:05:00,94.0,75.4,29.77,NW,313,0.0,5.0,55,0.00,,---,0.00,VWS V14.01,2013-08-13 18:05:00,
2013-08-13 14:06:00,94.0,75.4,29.77,NW,313,0.0,5.0,55,0.00,,---,0.00,VWS V14.01,2013-08-13 18:06:00,
2013-08-13 14:07:00,93.8,75.2,29.77,SW,224,0.0,5.0,55,0.00,,---,0.00,VWS V14.01,2013-08-13 18:07:00,
2013-08-13 14:08:00,93.8,76.3,29.77,SW,224,0.0,5.0,57,0.00,,---,0.00,VWS V14.01,2013-08-13 18:08:00,
2013-08-13 14:09:00,93.8,75.7,29.77,East,89,0.0,5.0,56,0.00,,---,0.00,VWS V14.01,2013-08-13 18:09:00,
2013-08-13 14:10:00,93.8,76.3,29.77,East,89,0.0,5.0,57,0.00,,---,0.00,VWS V14.01,2013-08-13 18:10:00,
2013-08-13 14:11:00,93.6,76.6,29.77,East,89,0.0,0.0,58,0.00,,---,0.00,VWS V14.01,2013-08-13 18:11:00,
2013-08-13 14:12:00,93.6,76.1,29.77,East,89,0.0,0.0,57,0.00,,---,0.00,VWS V14.01,2013-08-13 18:12:00,
2013-08-13 14:13:00,93.6,76.1,29.77,SW,217,2.0,3.0,57,0.00,,---,0.00,VWS V14.01,2013-08-13 18:13:00,
2013-08-13 14:14:00,93.6,76.1,29.77,West,268,0.0,3.0,57,0.00,,---,0.00,VWS V14.01,2013-08-13 18:14:00,
2013-08-13 14:15:00,93.6,76.6,29.76,SE,140,0.0,5.0,58,0.00,,---,0.00,VWS V14.01,2013-08-13 18:15:00,
2013-08-13 14:16:00,93.6,76.1,29.76,SE,143,0.0,5.0,57,0.00,,---,0.00,VWS V14.01,2013-08-13 18:16:00,
2013-08-13 14:17:00,93.6,76.6,29.76,SSE,154,0.0,5.0,58,0.00,,---,0.00,VWS V14.01,2013-08-13 18:17:00,
2013-08-13 14:18:00,93.6,76.6,29.76,WSW,240,4.0,5.0,58,0.00,,---,0.00,VWS V14.01,2013-08-13 18:18:00,
2013-08-13 14:19:00,93.6,77.1,29.76,WNW,284,0.0,5.0,59,0.00,,---,0.00,VWS V14.01,2013-08-13 18:19:00,
2013-08-13 14:20:00,93.6,77.1,29.76,WSW,258,0.0,7.0,59,0.00,,---,0.00,VWS V14.01,2013-08-13 18:20:00,
2013-08-13 14:21:00,93.6,75.6,29.76,SW,226,0.0,3.0,56,0.00,,---,0.00,VWS V14.01,2013-08-13 18:21:00,
2013-08-13 14:22:00,93.8,75.2,29.76,West,280,0.0,3.0,55,0.00,,---,0.00,VWS V14.01,2013-08-13 18:22:00,
2013-08-13 14:23:00,93.8,75.2,29.76,West,278,0.0,3.0,55,0.00,,---,0.00,VWS V14.01,2013-08-13 18:23:00,
2013-08-13 14:24:00,93.8,75.2,29.76,West,280,1.0,3.0,55,0.00,,---,0.00,VWS V14.01,2013-08-13 18:24:00,
2013-08-13 14:25:00,93.8,76.3,29.76,SSE,164,0.0,3.0,57,0.00,,---,0.00,VWS V14.01,2013-08-13 18:25:00,
2013-08-13 14:26:00,93.8,75.7,29.76,SSW,199,3.0,6.0,56,0.00,,---,0.00,VWS V14.01,2013-08-13 18:26:00,
2013-08-13 14:27:00,93.8,75.7,29.76,SSW,200,2.0,6.0,56,0.00,,---,0.00,VWS V14.01,2013-08-13 18:27:00,
2013-08-13 14:28:00,93.6,75.0,29.76,WSW,237,0.0,6.0,55,0.00,,---,0.00,VWS V14.01,2013-08-13 18:28:00,
2013-08-13 14:29:00,93.6,75.0,29.76,SW,226,0.0,6.0,55,0.00,,---,0.00,VWS V14.01,2013-08-13 18:29:00,
2013-08-13 14:30:00,93.4,74.8,29.75,SSE,157,0.0,7.0,55,0.00,,---,0.00,VWS V14.01,2013-08-13 18:30:00,
2013-08-13 14:31:00,93.4,75.9,29.75,SSE,157,0.0,0.0,57,0.00,,---,0.00,VWS V14.01,2013-08-13 18:31:00,
2013-08-13 14:32:00,93.4,75.9,29.75,SSE,157,0.0,0.0,57,0.00,,---,0.00,VWS V14.01,2013-08-13 18:32:00,
2013-08-13 14:33:00,93.2,75.7,29.75,SSE,157,0.0,0.0,57,0.00,,---,0.00,VWS V14.01,2013-08-13 18:33:00,
2013-08-13 14:34:00,93.2,75.7,29.75,WSW,237,0.0,0.0,57,0.00,,---,0.00,VWS V14.01,2013-08-13 18:34:00,
2013-08-13 14:35:00,92.9,75.4,29.75,WSW,237,0.0,0.0,57,0.00,,---,0.00,VWS V14.01,2013-08-13 18:35:00,
2013-08-13 14:36:00,92.9,75.4,29.75,WSW,237,0.0,0.0,57,0.00,,---,0.00,VWS V14.01,2013-08-13 18:36:00,
2013-08-13 14:37:00,92.7,75.8,29.75,WSW,237,1.0,1.0,58,0.00,,---,0.00,VWS V14.01,2013-08-13 18:37:00,
2013-08-13 14:38:00,92.7,76.3,29.75,WNW,285,0.0,1.0,59,0.00,,---,0.00,VWS V14.01,2013-08-13 18:38:00,
2013-08-13 14:39:00,92.7,75.8,29.75,WNW,298,0.0,3.0,58,0.00,,---,0.00,VWS V14.01,2013-08-13 18:39:00,
2013-08-13 14:40:00,92.5,75.6,29.75,WNW,298,0.0,3.0,58,0.00,,---,0.00,VWS V14.01,2013-08-13 18:40:00,
2013-08-13 14:41:00,92.5,76.6,29.75,WNW,298,0.0,0.0,60,0.00,,---,0.00,VWS V14.01,2013-08-13 18:41:00,
2013-08-13 14:42:00,92.5,76.6,29.75,WNW,298,0.0,0.0,60,0.00,,---,0.00,VWS V14.01,2013-08-13 18:42:00,
2013-08-13 14:43:00,92.3,76.4,29.75,NW,308,1.0,3.0,60,0.00,,---,0.00,VWS V14.01,2013-08-13 18:43:00,
2013-08-13 14:44:00,92.3,75.9,29.75,East,90,1.0,3.0,59,0.00,,---,0.00,VWS V14.01,2013-08-13 18:44:00,
2013-08-13 14:45:00,92.1,75.7,29.77,NW,323,0.0,5.0,59,0.00,,---,0.00,VWS V14.01,2013-08-13 18:45:00,
2013-08-13 14:46:00,91.8,76.4,29.77,WNW,292,2.0,5.0,61,0.00,,---,0.00,VWS V14.01,2013-08-13 18:46:00,
2013-08-13 14:47:00,91.6,76.7,29.77,NNW,330,2.0,5.0,62,0.00,,---,0.00,VWS V14.01,2013-08-13 18:47:00,
2013-08-13 14:48:00,91.2,76.8,29.77,NNW,330,0.0,5.0,63,0.00,,---,0.00,VWS V14.01,2013-08-13 18:48:00,
2013-08-13 14:49:00,91.0,78.1,29.77,NNW,330,0.0,5.0,66,0.00,,---,0.00,VWS V14.01,2013-08-13 18:49:00,
2013-08-13 14:50:00,90.5,77.6,29.77,NNW,330,6.0,6.0,66,0.05,,---,0.05,VWS V14.01,2013-08-13 18:50:00,
2013-08-13 14:51:00,89.9,77.0,29.77,NNW,332,3.0,7.0,66,0.09,,---,0.09,VWS V14.01,2013-08-13 18:51:00,
2013-08-13 14:52:00,89.0,80.4,29.77,North,0,2.0,7.0,76,0.20,,---,0.20,VWS V14.01,2013-08-13 18:52:00,
2013-08-13 14:53:00,88.2,79.7,29.77,North,4,3.0,7.0,76,0.24,,---,0.24,VWS V14.01,2013-08-13 18:53:00,
2013-08-13 14:54:00,87.6,80.7,29.77,NNW,335,2.0,8.0,80,0.26,,---,0.26,VWS V14.01,2013-08-13 18:54:00,
2013-08-13 14:55:00,86.7,79.8,29.77,North,0,1.0,8.0,80,0.26,,---,0.26,VWS V14.01,2013-08-13 18:55:00,
2013-08-13 14:56:00,86.3,79.4,29.77,North,353,1.0,10.0,80,0.27,,---,0.27,VWS V14.01,2013-08-13 18:56:00,
2013-08-13 14:57:00,85.5,79.4,29.77,North,0,5.0,10.0,82,0.27,,---,0.27,VWS V14.01,2013-08-13 18:57:00,
2013-08-13 14:58:00,85.1,79.4,29.77,NNE,16,0.0,10.0,83,0.27,,---,0.27,VWS V14.01,2013-08-13 18:58:00,
2013-08-13 14:59:00,84.7,79.3,29.77,NNE,16,0.0,10.0,84,0.27,,---,0.27,VWS V14.01,2013-08-13 18:59:00,
2013-08-13 15:00:00,84.5,80.2,29.76,NE,37,3.0,10.0,87,0.27,,---,0.27,VWS V14.01,2013-08-13 19:00:00,
2013-08-13 15:01:00,84.1,79.8,29.76,NNE,21,0.0,3.0,87,0.27,,---,0.27,VWS V14.01,2013-08-13 19:01:00,
2013-08-13 15:02:00,84.0,80.4,29.76,NNE,21,0.0,3.0,89,0.27,,---,0.27,VWS V14.01,2013-08-13 19:02:00,
2013-08-13 15:03:00,83.8,80.2,29.76,NNE,21,0.0,3.0,89,0.27,,---,0.27,VWS V14.01,2013-08-13 19:03:00,
2013-08-13 15:04:00,83.6,80.0,29.76,NNE,21,0.0,3.0,89,0.27,,---,0.27,VWS V14.01,2013-08-13 19:04:00,
2013-08-13 15:05:00,83.4,79.8,29.76,NNE,21,0.0,3.0,89,0.27,,---,0.27,VWS V14.01,2013-08-13 19:05:00,
2013-08-13 15:06:00,83.2,79.6,29.76,NNE,21,0.0,3.0,89,0.27,,---,0.27,VWS V14.01,2013-08-13 19:06:00,
2013-08-13 15:07:00,82.8,79.6,29.76,NNE,21,0.0,3.0,90,0.27,,---,0.27,VWS V14.01,2013-08-13 19:07:00,
2013-08-13 15:08:00,82.6,79.4,29.76,NNE,21,0.0,3.0,90,0.27,,---,0.27,VWS V14.01,2013-08-13 19:08:00,
2013-08-13 15:09:00,82.6,79.4,29.76,NNE,21,0.0,3.0,90,0.27,,---,0.27,VWS V14.01,2013-08-13 19:09:00,
2013-08-13 15:10:00,82.4,79.8,29.76,NNE,21,0.0,3.0,92,0.27,,---,0.27,VWS V14.01,2013-08-13 19:10:00,
2013-08-13 15:11:00,82.2,79.7,29.76,NNE,21,0.0,0.0,92,0.27,,---,0.27,VWS V14.01,2013-08-13 19:11:00,
2013-08-13 15:12:00,82.2,79.7,29.76,NNE,21,0.0,0.0,92,0.27,,---,0.27,VWS V14.01,2013-08-13 19:12:00,
2013-08-13 15:13:00,82.0,79.4,29.76,NNE,21,0.0,0.0,92,0.27,,---,0.27,VWS V14.01,2013-08-13 19:13:00,
2013-08-13 15:14:00,81.8,79.9,29.76,NNE,21,0.0,0.0,94,0.27,,---,0.27,VWS V14.01,2013-08-13 19:14:00,
2013-08-13 15:15:00,81.8,79.9,29.75,NNE,21,0.0,0.0,94,0.27,,---,0.27,VWS V14.01,2013-08-13 19:15:00,
2013-08-13 15:16:00,81.8,79.9,29.75,NNE,21,0.0,0.0,94,0.27,,---,0.27,VWS V14.01,2013-08-13 19:16:00,
2013-08-13 15:17:00,81.6,80.0,29.75,NNE,21,0.0,0.0,95,0.27,,---,0.27,VWS V14.01,2013-08-13 19:17:00,
2013-08-13 15:18:00,81.6,80.0,29.75,NNE,21,0.0,0.0,95,0.27,,---,0.27,VWS V14.01,2013-08-13 19:18:00,
2013-08-13 15:19:00,81.4,79.8,29.75,NNE,21,0.0,0.0,95,0.27,,---,0.27,VWS V14.01,2013-08-13 19:19:00,
2013-08-13 15:20:00,81.4,79.8,29.75,NNE,21,0.0,0.0,95,0.27,,---,0.27,VWS V14.01,2013-08-13 19:20:00,
2013-08-13 15:21:00,81.2,79.6,29.75,NNE,21,0.0,0.0,95,0.27,,---,0.27,VWS V14.01,2013-08-13 19:21:00,
2013-08-13 15:22:00,81.2,80.0,29.75,NNE,21,0.0,0.0,96,0.28,,---,0.28,VWS V14.01,2013-08-13 19:22:00,
2013-08-13 15:23:00,81.2,80.0,29.75,NNE,21,0.0,0.0,96,0.30,,---,0.30,VWS V14.01,2013-08-13 19:23:00,
2013-08-13 15:24:00,81.1,80.2,29.75,NNE,21,0.0,0.0,97,0.30,,---,0.30,VWS V14.01,2013-08-13 19:24:00,
2013-08-13 15:25:00,81.1,80.2,29.75,East,82,0.0,0.0,97,0.30,,---,0.30,VWS V14.01,2013-08-13 19:25:00,
2013-08-13 15:26:00,81.1,80.2,29.75,East,82,0.0,1.0,97,0.30,,---,0.30,VWS V14.01,2013-08-13 19:26:00,
2013-08-13 15:27:00,81.1,80.2,29.75,East,82,0.0,1.0,97,0.30,,---,0.30,VWS V14.01,2013-08-13 19:27:00,
2013-08-13 15:28:00,81.1,80.5,29.75,East,82,0.0,1.0,98,0.30,,---,0.30,VWS V14.01,2013-08-13 19:28:00,
2013-08-13 15:29:00,81.1,80.5,29.75,East,82,0.0,1.0,98,0.30,,---,0.30,VWS V14.01,2013-08-13 19:29:00,
2013-08-13 15:30:00,80.9,80.3,29.75,East,82,0.0,1.0,98,0.30,,---,0.30,VWS V14.01,2013-08-13 19:30:00,
2013-08-13 15:31:00,80.9,80.3,29.75,East,82,0.0,0.0,98,0.30,,---,0.30,VWS V14.01,2013-08-13 19:31:00,
2013-08-13 15:32:00,80.9,80.3,29.75,East,82,0.0,0.0,98,0.30,,---,0.30,VWS V14.01,2013-08-13 19:32:00,
2013-08-13 15:33:00,80.9,80.3,29.75,East,82,0.0,0.0,98,0.30,,---,0.30,VWS V14.01,2013-08-13 19:33:00,
2013-08-13 15:34:00,80.7,80.1,29.75,East,82,0.0,0.0,98,0.30,,---,0.30,VWS V14.01,2013-08-13 19:34:00,
2013-08-13 15:35:00,80.7,80.1,29.75,East,82,0.0,0.0,98,0.30,,---,0.30,VWS V14.01,2013-08-13 19:35:00,
2013-08-13 15:36:00,80.7,80.1,29.75,East,82,0.0,0.0,98,0.30,,---,0.30,VWS V14.01,2013-08-13 19:36:00,
2013-08-13 15:37:00,80.7,80.1,29.75,East,82,0.0,0.0,98,0.30,,---,0.30,VWS V14.01,2013-08-13 19:37:00,
2013-08-13 15:38:00,80.7,80.1,29.75,East,82,0.0,0.0,98,0.30,,---,0.30,VWS V14.01,2013-08-13 19:38:00,
2013-08-13 15:39:00,80.7,80.4,29.75,East,82,0.0,0.0,99,0.30,,---,0.30,VWS V14.01,2013-08-13 19:39:00,
2013-08-13 15:40:00,80.7,80.4,29.75,East,82,0.0,0.0,99,0.30,,---,0.30,VWS V14.01,2013-08-13 19:40:00,
2013-08-13 15:41:00,80.9,80.6,29.75,East,82,0.0,0.0,99,0.30,,---,0.30,VWS V14.01,2013-08-13 19:41:00,
2013-08-13 15:42:00,80.9,80.6,29.75,East,82,0.0,0.0,99,0.30,,---,0.30,VWS V14.01,2013-08-13 19:42:00,
2013-08-13 15:43:00,80.9,80.6,29.75,East,82,0.0,0.0,99,0.30,,---,0.30,VWS V14.01,2013-08-13 19:43:00,
2013-08-13 15:44:00,80.9,80.6,29.75,East,82,0.0,0.0,99,0.30,,---,0.30,VWS V14.01,2013-08-13 19:44:00,
2013-08-13 15:45:00,80.9,80.9,29.74,East,82,0.0,0.0,100,0.30,,---,0.30,VWS V14.01,2013-08-13 19:45:00,
2013-08-13 15:46:00,81.1,81.1,29.74,East,82,0.0,0.0,100,0.30,,---,0.30,VWS V14.01,2013-08-13 19:46:00,
2013-08-13 15:47:00,81.1,81.1,29.74,East,82,0.0,0.0,100,0.30,,---,0.30,VWS V14.01,2013-08-13 19:47:00,
2013-08-13 15:48:00,81.1,81.1,29.74,East,82,0.0,0.0,100,0.30,,---,0.30,VWS V14.01,2013-08-13 19:48:00,
2013-08-13 15:49:00,81.1,81.1,29.74,NNE,27,0.0,0.0,100,0.30,,---,0.30,VWS V14.01,2013-08-13 19:49:00,
2013-08-13 15:50:00,81.2,81.2,29.74,NE,54,0.0,0.0,100,0.30,,---,0.30,VWS V14.01,2013-08-13 19:50:00,
2013-08-13 15:51:00,81.2,81.2,29.74,ENE,62,0.0,0.0,100,0.25,,---,0.30,VWS V14.01,2013-08-13 19:51:00,
2013-08-13 15:52:00,81.4,81.4,29.74,ENE,65,0.0,0.0,100,0.25,,---,0.30,VWS V14.01,2013-08-13 19:52:00,
2013-08-13 15:53:00,81.4,81.4,29.74,ENE,73,0.0,0.0,100,0.25,,---,0.30,VWS V14.01,2013-08-13 19:53:00,
2013-08-13 15:54:00,81.4,81.4,29.74,ENE,73,0.0,0.0,100,0.25,,---,0.30,VWS V14.01,2013-08-13 19:54:00,
2013-08-13 15:55:00,81.6,81.6,29.74,ENE,73,0.0,0.0,100,0.25,,---,0.30,VWS V14.01,2013-08-13 19:55:00,
2013-08-13 15:56:00,81.6,81.6,29.74,ENE,73,0.0,0.0,100,0.25,,---,0.30,VWS V14.01,2013-08-13 19:56:00,
2013-08-13 15:57:00,81.6,81.6,29.74,ENE,73,0.0,0.0,100,0.25,,---,0.30,VWS V14.01,2013-08-13 19:57:00,
2013-08-13 15:58:00,81.6,81.6,29.74,ENE,73,0.0,0.0,100,0.25,,---,0.30,VWS V14.01,2013-08-13 19:58:00,
2013-08-13 15:59:00,81.6,81.6,29.74,ENE,73,0.0,0.0,100,0.25,,---,0.30,VWS V14.01,2013-08-13 19:59:00,
2013-08-13 16:00:00,81.6,81.6,29.74,ENE,73,0.0,0.0,100,0.25,,---,0.30,VWS V14.01,2013-08-13 20:00:00,
2013-08-13 16:01:00,81.6,81.6,29.74,NNW,346,0.0,1.0,100,0.03,,---,0.30,VWS V14.01,2013-08-13 20:01:00,
2013-08-13 16:02:00,81.6,81.6,29.74,NNW,346,0.0,1.0,100,0.03,,---,0.30,VWS V14.01,2013-08-13 20:02:00,
2013-08-13 16:03:00,81.6,81.6,29.74,NNW,346,0.0,1.0,100,0.03,,---,0.30,VWS V14.01,2013-08-13 20:03:00,
2013-08-13 16:04:00,81.4,81.1,29.74,NNW,346,0.0,1.0,99,0.03,,---,0.30,VWS V14.01,2013-08-13 20:04:00,
2013-08-13 16:05:00,81.4,80.8,29.74,NNW,346,0.0,1.0,98,0.03,,---,0.30,VWS V14.01,2013-08-13 20:05:00,
2013-08-13 16:06:00,81.4,80.8,29.74,North,352,0.0,1.0,98,0.03,,---,0.30,VWS V14.01,2013-08-13 20:06:00,
2013-08-13 16:07:00,81.2,80.6,29.74,West,281,0.0,1.0,98,0.03,,---,0.30,VWS V14.01,2013-08-13 20:07:00,
2013-08-13 16:08:00,81.2,80.6,29.74,West,280,0.0,1.0,98,0.03,,---,0.30,VWS V14.01,2013-08-13 20:08:00,
2013-08-13 16:09:00,81.2,80.3,29.74,West,280,0.0,1.0,97,0.03,,---,0.30,VWS V14.01,2013-08-13 20:09:00,
2013-08-13 16:10:00,81.2,80.3,29.74,West,280,0.0,1.0,97,0.03,,---,0.30,VWS V14.01,2013-08-13 20:10:00,
2013-08-13 16:11:00,81.1,79.5,29.74,West,280,0.0,0.0,95,0.03,,---,0.30,VWS V14.01,2013-08-13 20:11:00,
2013-08-13 16:12:00,81.1,79.9,29.74,West,280,0.0,0.0,96,0.03,,---,0.30,VWS V14.01,2013-08-13 20:12:00,
2013-08-13 16:13:00,81.1,79.9,29.74,West,280,0.0,0.0,96,0.03,,---,0.30,VWS V14.01,2013-08-13 20:13:00,
2013-08-13 16:14:00,81.1,79.9,29.74,West,280,0.0,0.0,96,0.03,,---,0.30,VWS V14.01,2013-08-13 20:14:00,
2013-08-13 16:15:00,81.1,80.2,29.73,West,280,0.0,0.0,97,0.03,,---,0.30,VWS V14.01,2013-08-13 20:15:00,
2013-08-13 16:16:00,81.1,80.2,29.73,West,280,0.0,1.0,97,0.03,,---,0.30,VWS V14.01,2013-08-13 20:16:00,
2013-08-13 16:17:00,81.1,80.2,29.73,SSW,206,0.0,1.0,97,0.03,,---,0.30,VWS V14.01,2013-08-13 20:17:00,
2013-08-13 16:18:00,81.1,80.5,29.73,SSW,206,0.0,1.0,98,0.03,,---,0.30,VWS V14.01,2013-08-13 20:18:00,
2013-08-13 16:19:00,81.1,80.5,29.73,SSW,206,0.0,1.0,98,0.03,,---,0.30,VWS V14.01,2013-08-13 20:19:00,
2013-08-13 16:20:00,81.1,80.5,29.73,East,88,0.0,1.0,98,0.03,,---,0.30,VWS V14.01,2013-08-13 20:20:00,
2013-08-13 16:21:00,81.1,80.5,29.73,East,88,0.0,0.0,98,0.03,,---,0.30,VWS V14.01,2013-08-13 20:21:00,
2013-08-13 16:22:00,81.1,80.5,29.73,East,88,0.0,0.0,98,0.03,,---,0.30,VWS V14.01,2013-08-13 20:22:00,
2013-08-13 16:23:00,81.1,80.5,29.73,East,88,0.0,0.0,98,0.03,,---,0.30,VWS V14.01,2013-08-13 20:23:00,
2013-08-13 16:24:00,81.2,80.6,29.73,East,88,0.0,0.0,98,0.03,,---,0.30,VWS V14.01,2013-08-13 20:24:00,
2013-08-13 16:25:00,81.2,80.6,29.73,East,88,0.0,0.0,98,0.03,,---,0.30,VWS V14.01,2013-08-13 20:25:00,
2013-08-13 16:26:00,81.2,80.6,29.73,East,88,0.0,0.0,98,0.03,,---,0.30,VWS V14.01,2013-08-13 20:26:00,
2013-08-13 16:27:00,81.2,80.3,29.73,East,88,0.0,0.0,97,0.03,,---,0.30,VWS V14.01,2013-08-13 20:27:00,
2013-08-13 16:28:00,81.2,80.3,29.73,East,88,0.0,0.0,97,0.03,,---,0.30,VWS V14.01,2013-08-13 20:28:00,
2013-08-13 16:29:00,81.2,80.3,29.73,East,88,0.0,0.0,97,0.03,,---,0.30,VWS V14.01,2013-08-13 20:29:00,
2013-08-13 16:30:00,81.2,80.3,29.73,East,88,0.0,0.0,97,0.03,,---,0.30,VWS V14.01,2013-08-13 20:30:00,
2013-08-13 16:31:00,81.2,80.3,29.73,East,88,0.0,0.0,97,0.00,,---,0.30,VWS V14.01,2013-08-13 20:31:00,
2013-08-13 16:32:00,81.2,80.6,29.73,East,88,0.0,0.0,98,0.00,,---,0.30,VWS V14.01,2013-08-13 20:32:00,
2013-08-13 16:33:00,81.2,80.6,29.73,East,88,0.0,0.0,98,0.00,,---,0.30,VWS V14.01,2013-08-13 20:33:00,
2013-08-13 16:34:00,81.4,80.8,29.73,East,88,0.0,1.0,98,0.00,,---,0.30,VWS V14.01,2013-08-13 20:34:00,
2013-08-13 16:35:00,81.4,80.8,29.73,East,88,0.0,1.0,98,0.00,,---,0.30,VWS V14.01,2013-08-13 20:35:00,
2013-08-13 16:36:00,81.4,80.8,29.73,East,88,0.0,1.0,98,0.00,,---,0.30,VWS V14.01,2013-08-13 20:36:00,
2013-08-13 16:37:00,81.4,80.8,29.73,NNW,340,0.0,1.0,98,0.00,,---,0.30,VWS V14.01,2013-08-13 20:37:00,
2013-08-13 16:38:00,81.4,80.8,29.73,SSW,198,0.0,1.0,98,0.00,,---,0.30,VWS V14.01,2013-08-13 20:38:00,
2013-08-13 16:39:00,81.4,79.8,29.73,SSW,198,0.0,1.0,95,0.00,,---,0.30,VWS V14.01,2013-08-13 20:39:00,
2013-08-13 16:40:00,81.4,79.5,29.73,SSE,147,0.0,1.0,94,0.00,,---,0.30,VWS V14.01,2013-08-13 20:40:00,
2013-08-13 16:41:00,81.6,79.7,29.73,SSE,147,0.0,0.0,94,0.00,,---,0.30,VWS V14.01,2013-08-13 20:41:00,
2013-08-13 16:42:00,81.6,79.7,29.73,SSE,147,0.0,0.0,94,0.00,,---,0.30,VWS V14.01,2013-08-13 20:42:00,
2013-08-13 16:43:00,81.6,80.0,29.73,SSE,147,0.0,0.0,95,0.00,,---,0.30,VWS V14.01,2013-08-13 20:43:00,
2013-08-13 16:44:00,81.6,80.0,29.73,SSE,147,0.0,0.0,95,0.00,,---,0.30,VWS V14.01,2013-08-13 20:44:00,
2013-08-13 16:45:00,81.6,80.0,29.72,WNW,284,0.0,0.0,95,0.00,,---,0.30,VWS V14.01,2013-08-13 20:45:00,
2013-08-13 16:46:00,81.6,79.7,29.72,WNW,289,0.0,1.0,94,0.00,,---,0.30,VWS V14.01,2013-08-13 20:46:00,
2013-08-13 16:47:00,81.6,79.7,29.72,West,260,0.0,1.0,94,0.00,,---,0.30,VWS V14.01,2013-08-13 20:47:00,
2013-08-13 16:48:00,81.6,79.7,29.72,West,264,0.0,1.0,94,0.00,,---,0.30,VWS V14.01,2013-08-13 20:48:00,
2013-08-13 16:49:00,81.6,79.7,29.72,North,1,0.0,2.0,94,0.00,,---,0.30,VWS V14.01,2013-08-13 20:49:00,
2013-08-13 16:50:00,81.6,79.4,29.72,WSW,237,0.0,3.0,93,0.00,,---,0.30,VWS V14.01,2013-08-13 20:50:00,
2013-08-13 16:51:00,81.6,79.1,29.72,NW,320,0.0,0.0,92,0.00,,---,0.30,VWS V14.01,2013-08-13 20:51:00,
2013-08-13 16:52:00,81.8,79.6,29.72,WSW,257,0.0,1.0,93,0.00,,---,0.30,VWS V14.01,2013-08-13 20:52:00,
2013-08-13 16:53:00,81.8,79.6,29.72,WSW,256,0.0,1.0,93,0.00,,---,0.30,VWS V14.01,2013-08-13 20:53:00,
2013-08-13 16:54:00,81.8,79.9,29.72,WSW,256,0.0,1.0,94,0.00,,---,0.30,VWS V14.01,2013-08-13 20:54:00,
2013-08-13 16:55:00,81.8,79.6,29.72,WSW,254,0.0,1.0,93,0.00,,---,0.30,VWS V14.01,2013-08-13 20:55:00,
2013-08-13 16:56:00,81.8,79.2,29.72,WSW,251,0.0,1.0,92,0.00,,---,0.30,VWS V14.01,2013-08-13 20:56:00,
2013-08-13 16:57:00,81.8,78.6,29.72,WSW,251,0.0,1.0,90,0.00,,---,0.30,VWS V14.01,2013-08-13 20:57:00,
2013-08-13 16:58:00,81.8,78.6,29.72,West,270,0.0,1.0,90,0.00,,---,0.30,VWS V14.01,2013-08-13 20:58:00,
2013-08-13 16:59:00,81.8,79.2,29.72,West,270,0.0,1.0,92,0.00,,---,0.30,VWS V14.01,2013-08-13 20:59:00,
2013-08-13 17:00:00,81.8,78.9,29.73,NW,311,0.0,1.0,91,0.00,,---,0.30,VWS V14.01,2013-08-13 21:00:00,
2013-08-13 17:01:00,81.8,78.9,29.73,WSW,247,0.0,0.0,91,0.00,,---,0.30,VWS V14.01,2013-08-13 21:01:00,
2013-08-13 17:02:00,81.8,77.9,29.73,NW,319,0.0,6.0,88,0.00,,---,0.30,VWS V14.01,2013-08-13 21:02:00,
2013-08-13 17:03:00,81.8,77.9,29.73,North,357,0.0,6.0,88,0.00,,---,0.30,VWS V14.01,2013-08-13 21:03:00,
2013-08-13 17:04:00,81.8,78.2,29.73,North,359,0.0,6.0,89,0.00,,---,0.30,VWS V14.01,2013-08-13 21:04:00,
2013-08-13 17:05:00,81.8,77.9,29.73,North,357,0.0,6.0,88,0.00,,---,0.30,VWS V14.01,2013-08-13 21:05:00,
2013-08-13 17:06:00,82.0,78.1,29.73,North,359,0.0,6.0,88,0.00,,---,0.30,VWS V14.01,2013-08-13 21:06:00,
2013-08-13 17:07:00,82.0,78.4,29.73,North,357,0.0,6.0,89,0.00,,---,0.30,VWS V14.01,2013-08-13 21:07:00,
2013-08-13 17:08:00,82.0,78.4,29.73,North,359,0.0,6.0,89,0.00,,---,0.30,VWS V14.01,2013-08-13 21:08:00,
2013-08-13 17:09:00,82.0,78.4,29.73,WNW,299,0.0,6.0,89,0.00,,---,0.30,VWS V14.01,2013-08-13 21:09:00,
2013-08-13 17:10:00,82.0,78.1,29.73,WNW,299,0.0,6.0,88,0.00,,---,0.30,VWS V14.01,2013-08-13 21:10:00,
2013-08-13 17:11:00,82.0,78.4,29.73,WNW,299,0.0,0.0,89,0.00,,---,0.30,VWS V14.01,2013-08-13 21:11:00,
2013-08-13 17:12:00,82.0,77.4,29.73,WNW,299,0.0,0.0,86,0.00,,---,0.30,VWS V14.01,2013-08-13 21:12:00,
2013-08-13 17:13:00,82.2,78.3,29.73,WNW,299,0.0,0.0,88,0.00,,---,0.30,VWS V14.01,2013-08-13 21:13:00,
2013-08-13 17:14:00,82.2,77.6,29.73,WNW,299,0.0,0.0,86,0.00,,---,0.30,VWS V14.01,2013-08-13 21:14:00,
2013-08-13 17:15:00,82.2,77.9,29.72,WNW,299,0.0,0.0,87,0.00,,---,0.30,VWS V14.01,2013-08-13 21:15:00,
2013-08-13 17:16:00,82.2,77.9,29.72,WNW,299,0.0,0.0,87,0.00,,---,0.30,VWS V14.01,2013-08-13 21:16:00,
2013-08-13 17:17:00,82.2,77.9,29.72,NNW,340,0.0,0.0,87,0.00,,---,0.30,VWS V14.01,2013-08-13 21:17:00,
2013-08-13 17:18:00,82.2,78.3,29.72,NW,305,0.0,1.0,88,0.00,,---,0.30,VWS V14.01,2013-08-13 21:18:00,
2013-08-13 17:19:00,82.4,78.1,29.72,NW,305,0.0,1.0,87,0.00,,---,0.30,VWS V14.01,2013-08-13 21:19:00,
2013-08-13 17:20:00,82.4,78.5,29.72,NW,305,0.0,1.0,88,0.00,,---,0.30,VWS V14.01,2013-08-13 21:20:00,
2013-08-13 17:21:00,82.4,78.5,29.72,NW,305,0.0,0.0,88,0.00,,---,0.30,VWS V14.01,2013-08-13 21:21:00,
2013-08-13 17:22:00,82.4,78.5,29.72,NW,305,0.0,0.0,88,0.00,,---,0.30,VWS V14.01,2013-08-13 21:22:00,
2013-08-13 17:23:00,82.4,78.5,29.72,NW,305,0.0,0.0,88,0.00,,---,0.30,VWS V14.01,2013-08-13 21:23:00,
2013-08-13 17:24:00,82.6,79.0,29.72,NW,305,0.0,0.0,89,0.00,,---,0.30,VWS V14.01,2013-08-13 21:24:00,
2013-08-13 17:25:00,82.6,79.0,29.72,WNW,295,0.0,1.0,89,0.00,,---,0.30,VWS V14.01,2013-08-13 21:25:00,
2013-08-13 17:26:00,82.6,78.0,29.72,WNW,295,0.0,1.0,86,0.00,,---,0.30,VWS V14.01,2013-08-13 21:26:00,
2013-08-13 17:27:00,82.6,78.3,29.72,WNW,295,0.0,1.0,87,0.00,,---,0.30,VWS V14.01,2013-08-13 21:27:00,
2013-08-13 17:28:00,82.8,78.5,29.72,WNW,295,0.0,1.0,87,0.00,,---,0.30,VWS V14.01,2013-08-13 21:28:00,
2013-08-13 17:29:00,82.8,78.5,29.72,WNW,295,0.0,1.0,87,0.00,,---,0.30,VWS V14.01,2013-08-13 21:29:00,
2013-08-13 17:30:00,82.8,78.5,29.72,WNW,295,0.0,1.0,87,0.00,,---,0.30,VWS V14.01,2013-08-13 21:30:00,
2013-08-13 17:31:00,82.8,78.5,29.72,WNW,295,0.0,0.0,87,0.00,,---,0.30,VWS V14.01,2013-08-13 21:31:00,
2013-08-13 17:32:00,82.8,78.5,29.72,WNW,295,0.0,0.0,87,0.00,,---,0.30,VWS V14.01,2013-08-13 21:32:00,
2013-08-13 17:33:00,82.8,78.2,29.72,SSE,165,0.0,3.0,86,0.00,,---,0.30,VWS V14.01,2013-08-13 21:33:00,
2013-08-13 17:34:00,83.0,78.0,29.72,SSE,165,0.0,3.0,85,0.00,,---,0.30,VWS V14.01,2013-08-13 21:34:00,
2013-08-13 17:35:00,83.0,78.4,29.72,SSE,165,0.0,3.0,86,0.00,,---,0.30,VWS V14.01,2013-08-13 21:35:00,
2013-08-13 17:36:00,83.0,78.4,29.72,SSE,165,0.0,3.0,86,0.00,,---,0.30,VWS V14.01,2013-08-13 21:36:00,
2013-08-13 17:37:00,83.0,78.4,29.72,SSE,165,0.0,3.0,86,0.00,,---,0.30,VWS V14.01,2013-08-13 21:37:00,
2013-08-13 17:38:00,83.0,78.0,29.72,SSE,165,0.0,3.0,85,0.00,,---,0.30,VWS V14.01,2013-08-13 21:38:00,
2013-08-13 17:39:00,83.2,78.6,29.72,SSE,165,0.0,3.0,86,0.00,,---,0.30,VWS V14.01,2013-08-13 21:39:00,
2013-08-13 17:40:00,83.2,78.6,29.72,North,357,0.0,3.0,86,0.00,,---,0.30,VWS V14.01,2013-08-13 21:40:00,
2013-08-13 17:41:00,83.2,78.6,29.72,NNW,344,3.0,4.0,86,0.00,,---,0.30,VWS V14.01,2013-08-13 21:41:00,
2013-08-13 17:42:00,83.2,78.2,29.72,NW,323,0.0,7.0,85,0.00,,---,0.30,VWS V14.01,2013-08-13 21:42:00,
2013-08-13 17:43:00,83.2,78.2,29.72,NW,323,2.0,7.0,85,0.00,,---,0.30,VWS V14.01,2013-08-13 21:43:00,
2013-08-13 17:44:00,83.2,77.9,29.72,SSW,203,1.0,7.0,84,0.00,,---,0.30,VWS V14.01,2013-08-13 21:44:00,
2013-08-13 17:45:00,83.2,77.9,29.75,NW,312,8.0,8.0,84,0.00,,---,0.30,VWS V14.01,2013-08-13 21:45:00,
2013-08-13 17:46:00,83.2,78.2,29.75,North,352,0.0,8.0,85,0.02,,---,0.32,VWS V14.01,2013-08-13 21:46:00,
2013-08-13 17:47:00,83.0,78.7,29.75,NW,326,3.0,10.0,87,0.03,,---,0.33,VWS V14.01,2013-08-13 21:47:00,
2013-08-13 17:48:00,82.8,77.5,29.75,NNW,329,0.0,10.0,84,0.03,,---,0.33,VWS V14.01,2013-08-13 21:48:00,
2013-08-13 17:49:00,82.4,77.8,29.75,North,0,0.0,10.0,86,0.04,,---,0.34,VWS V14.01,2013-08-13 21:49:00,
2013-08-13 17:50:00,82.4,78.1,29.75,North,0,0.0,10.0,87,0.04,,---,0.34,VWS V14.01,2013-08-13 21:50:00,
2013-08-13 17:51:00,82.0,77.8,29.75,WSW,250,0.0,0.0,87,0.04,,---,0.34,VWS V14.01,2013-08-13 21:51:00,
2013-08-13 17:52:00,81.8,77.6,29.75,WNW,289,0.0,0.0,87,0.04,,---,0.34,VWS V14.01,2013-08-13 21:52:00,
2013-08-13 17:53:00,81.6,78.1,29.75,NW,309,2.0,2.0,89,0.06,,---,0.36,VWS V14.01,2013-08-13 21:53:00,
2013-08-13 17:54:00,81.4,77.8,29.75,NW,309,0.0,2.0,89,0.07,,---,0.37,VWS V14.01,2013-08-13 21:54:00,
2013-08-13 17:55:00,81.1,78.2,29.75,SSE,151,0.0,2.0,91,0.15,,---,0.45,VWS V14.01,2013-08-13 21:55:00,
2013-08-13 17:56:00,80.9,78.4,29.75,East,82,1.0,2.0,92,0.18,,---,0.48,VWS V14.01,2013-08-13 21:56:00,
2013-08-13 17:57:00,80.7,78.5,29.75,East,83,0.0,2.0,93,0.33,,---,0.63,VWS V14.01,2013-08-13 21:57:00,
2013-08-13 17:58:00,80.7,78.5,29.75,East,83,0.0,2.0,93,0.38,,---,0.68,VWS V14.01,2013-08-13 21:58:00,
2013-08-13 17:59:00,80.5,78.6,29.75,East,83,0.0,2.0,94,0.44,,---,0.74,VWS V14.01,2013-08-13 21:59:00,
2013-08-13 18:00:00,80.3,78.4,29.75,NW,322,1.0,2.0,94,0.55,,---,0.85,VWS V14.01,2013-08-13 22:00:00,
2013-08-13 18:01:00,80.1,78.5,29.75,North,0,0.0,1.0,95,0.61,,---,0.91,VWS V14.01,2013-08-13 22:01:00,
2013-08-13 18:02:00,79.9,78.3,29.75,ENE,75,0.0,1.0,95,0.69,,---,0.99,VWS V14.01,2013-08-13 22:02:00,
2013-08-13 18:03:00,79.8,78.6,29.75,SE,127,0.0,2.0,96,0.76,,---,1.06,VWS V14.01,2013-08-13 22:03:00,
2013-08-13 18:04:00,79.8,78.6,29.75,SE,127,0.0,2.0,96,0.77,,---,1.07,VWS V14.01,2013-08-13 22:04:00,
2013-08-13 18:05:00,79.6,78.4,29.75,SE,127,0.0,2.0,96,0.79,,---,1.09,VWS V14.01,2013-08-13 22:05:00,
2013-08-13 18:06:00,79.4,78.2,29.75,SE,127,0.0,2.0,96,0.86,,---,1.16,VWS V14.01,2013-08-13 22:06:00,
2013-08-13 18:07:00,79.2,78.0,29.75,North,352,0.0,2.0,96,0.88,,---,1.18,VWS V14.01,2013-08-13 22:07:00,
2013-08-13 18:08:00,79.2,78.3,29.75,North,354,0.0,2.0,97,0.89,,---,1.19,VWS V14.01,2013-08-13 22:08:00,
2013-08-13 18:09:00,79.0,78.1,29.75,North,354,0.0,2.0,97,0.93,,---,1.23,VWS V14.01,2013-08-13 22:09:00,
2013-08-13 18:10:00,78.8,78.2,29.75,North,350,0.0,2.0,98,0.98,,---,1.28,VWS V14.01,2013-08-13 22:10:00,
2013-08-13 18:11:00,78.8,78.2,29.75,NE,48,0.0,0.0,98,1.02,,---,1.32,VWS V14.01,2013-08-13 22:11:00,
2013-08-13 18:12:00,78.8,78.2,29.75,East,95,0.0,0.0,98,1.08,,---,1.38,VWS V14.01,2013-08-13 22:12:00,
2013-08-13 18:13:00,78.6,78.0,29.75,East,99,0.0,0.0,98,1.09,,---,1.39,VWS V14.01,2013-08-13 22:13:00,
2013-08-13 18:14:00,78.6,78.0,29.75,East,99,0.0,0.0,98,1.09,,---,1.39,VWS V14.01,2013-08-13 22:14:00,
2013-08-13 18:15:00,78.5,77.9,29.74,East,99,0.0,0.0,98,1.09,,---,1.39,VWS V14.01,2013-08-13 22:15:00,
2013-08-13 18:16:00,78.5,77.9,29.74,East,99,0.0,0.0,98,1.10,,---,1.40,VWS V14.01,2013-08-13 22:16:00,
2013-08-13 18:17:00,78.5,78.2,29.74,East,100,0.0,0.0,99,1.10,,---,1.40,VWS V14.01,2013-08-13 22:17:00,
2013-08-13 18:18:00,78.3,78.0,29.74,East,100,0.0,0.0,99,1.10,,---,1.40,VWS V14.01,2013-08-13 22:18:00,
2013-08-13 18:19:00,78.3,78.0,29.74,East,99,0.0,0.0,99,1.10,,---,1.40,VWS V14.01,2013-08-13 22:19:00,
2013-08-13 18:20:00,78.3,78.0,29.74,East,100,0.0,0.0,99,1.10,,---,1.40,VWS V14.01,2013-08-13 22:20:00,
2013-08-13 18:21:00,78.1,77.8,29.74,East,100,0.0,0.0,99,1.10,,---,1.40,VWS V14.01,2013-08-13 22:21:00,
2013-08-13 18:22:00,78.1,77.8,29.74,East,100,0.0,0.0,99,1.10,,---,1.40,VWS V14.01,2013-08-13 22:22:00,
2013-08-13 18:23:00,78.1,77.8,29.74,East,99,0.0,0.0,99,1.10,,---,1.40,VWS V14.01,2013-08-13 22:23:00,
2013-08-13 18:24:00,78.1,78.1,29.74,East,99,0.0,0.0,100,1.10,,---,1.40,VWS V14.01,2013-08-13 22:24:00,
2013-08-13 18:25:00,78.1,78.1,29.74,East,100,0.0,0.0,100,1.10,,---,1.40,VWS V14.01,2013-08-13 22:25:00,
2013-08-13 18:26:00,78.1,78.1,29.74,East,99,0.0,0.0,100,1.10,,---,1.40,VWS V14.01,2013-08-13 22:26:00,
2013-08-13 18:27:00,78.1,78.1,29.74,East,100,0.0,0.0,100,1.10,,---,1.40,VWS V14.01,2013-08-13 22:27:00,
2013-08-13 18:28:00,77.9,77.9,29.74,East,100,0.0,0.0,100,1.10,,---,1.40,VWS V14.01,2013-08-13 22:28:00,
2013-08-13 18:29:00,77.9,77.9,29.74,East,100,0.0,0.0,100,1.10,,---,1.40,VWS V14.01,2013-08-13 22:29:00,
2013-08-13 18:30:00,77.9,77.9,29.74,East,100,0.0,0.0,100,1.10,,---,1.40,VWS V14.01,2013-08-13 22:30:00,
2013-08-13 18:31:00,77.9,77.9,29.74,East,100,0.0,0.0,100,1.10,,---,1.40,VWS V14.01,2013-08-13 22:31:00,
2013-08-13 18:32:00,77.9,77.9,29.74,East,99,0.0,0.0,100,1.10,,---,1.40,VWS V14.01,2013-08-13 22:32:00,
2013-08-13 18:33:00,77.9,77.9,29.74,East,100,0.0,0.0,100,1.10,,---,1.40,VWS V14.01,2013-08-13 22:33:00,
2013-08-13 18:34:00,77.9,77.9,29.74,East,100,0.0,0.0,100,1.10,,---,1.40,VWS V14.01,2013-08-13 22:34:00,
2013-08-13 18:35:00,77.9,77.9,29.74,East,99,0.0,0.0,100,1.10,,---,1.40,VWS V14.01,2013-08-13 22:35:00,
2013-08-13 18:36:00,77.9,77.9,29.74,East,100,0.0,0.0,100,1.10,,---,1.40,VWS V14.01,2013-08-13 22:36:00,
2013-08-13 18:37:00,77.9,77.9,29.74,East,99,0.0,0.0,100,1.10,,---,1.40,VWS V14.01,2013-08-13 22:37:00,
2013-08-13 18:38:00,77.9,77.9,29.74,East,100,0.0,0.0,100,1.10,,---,1.40,VWS V14.01,2013-08-13 22:38:00,
2013-08-13 18:39:00,78.1,78.1,29.74,East,100,0.0,0.0,100,1.10,,---,1.40,VWS V14.01,2013-08-13 22:39:00,
2013-08-13 18:40:00,78.1,78.1,29.74,East,100,0.0,0.0,100,1.10,,---,1.40,VWS V14.01,2013-08-13 22:40:00,
2013-08-13 18:41:00,78.1,78.1,29.74,East,100,0.0,0.0,100,1.10,,---,1.40,VWS V14.01,2013-08-13 22:41:00,
2013-08-13 18:42:00,78.1,78.1,29.74,East,99,0.0,0.0,100,1.10,,---,1.40,VWS V14.01,2013-08-13 22:42:00,
2013-08-13 18:43:00,78.3,78.3,29.74,East,99,0.0,0.0,100,1.10,,---,1.40,VWS V14.01,2013-08-13 22:43:00,
2013-08-13 18:44:00,78.3,78.3,29.74,East,100,0.0,0.0,100,1.10,,---,1.40,VWS V14.01,2013-08-13 22:44:00,
2013-08-13 18:45:00,78.5,78.5,29.73,East,99,0.0,0.0,100,1.10,,---,1.40,VWS V14.01,2013-08-13 22:45:00,
2013-08-13 18:46:00,78.5,78.5,29.73,East,99,0.0,0.0,100,1.10,,---,1.40,VWS V14.01,2013-08-13 22:46:00,
2013-08-13 18:47:00,78.6,78.6,29.73,East,99,0.0,0.0,100,1.10,,---,1.40,VWS V14.01,2013-08-13 22:47:00,
2013-08-13 18:48:00,78.6,78.6,29.73,East,100,0.0,0.0,100,1.10,,---,1.40,VWS V14.01,2013-08-13 22:48:00,
2013-08-13 18:49:00,78.6,78.6,29.73,East,100,0.0,0.0,100,1.10,,---,1.40,VWS V14.01,2013-08-13 22:49:00,
2013-08-13 18:50:00,78.6,78.6,29.73,East,100,0.0,0.0,100,1.10,,---,1.40,VWS V14.01,2013-08-13 22:50:00,
2013-08-13 18:51:00,78.8,78.8,29.73,East,100,0.0,0.0,100,1.06,,---,1.40,VWS V14.01,2013-08-13 22:51:00,
2013-08-13 18:52:00,79.0,79.0,29.73,East,99,0.0,0.0,100,1.06,,---,1.40,VWS V14.01,2013-08-13 22:52:00,
2013-08-13 18:53:00,79.2,79.2,29.73,East,100,0.0,0.0,100,1.06,,---,1.40,VWS V14.01,2013-08-13 22:53:00,
2013-08-13 18:54:00,79.2,79.2,29.73,East,100,0.0,0.0,100,1.06,,---,1.40,VWS V14.01,2013-08-13 22:54:00,
2013-08-13 18:55:00,79.2,79.2,29.73,East,100,0.0,0.0,100,1.06,,---,1.40,VWS V14.01,2013-08-13 22:55:00,
2013-08-13 18:56:00,79.2,79.2,29.73,East,99,0.0,0.0,100,1.06,,---,1.40,VWS V14.01,2013-08-13 22:56:00,
2013-08-13 18:57:00,79.2,79.2,29.73,East,99,0.0,0.0,100,1.06,,---,1.40,VWS V14.01,2013-08-13 22:57:00,
2013-08-13 18:58:00,79.2,79.2,29.73,East,100,0.0,0.0,100,1.06,,---,1.40,VWS V14.01,2013-08-13 22:58:00,
2013-08-13 18:59:00,79.4,79.4,29.73,East,99,0.0,0.0,100,1.06,,---,1.40,VWS V14.01,2013-08-13 22:59:00,
2013-08-13 19:00:00,79.4,79.4,29.73,East,100,0.0,0.0,100,1.06,,---,1.40,VWS V14.01,2013-08-13 23:00:00,
2013-08-13 19:01:00,79.4,79.4,29.73,East,100,0.0,0.0,100,0.55,,---,1.40,VWS V14.01,2013-08-13 23:01:00,
2013-08-13 19:02:00,79.4,79.4,29.73,East,100,0.0,0.0,100,0.55,,---,1.40,VWS V14.01,2013-08-13 23:02:00,
2013-08-13 19:03:00,79.2,79.2,29.73,East,100,0.0,0.0,100,0.55,,---,1.40,VWS V14.01,2013-08-13 23:03:00,
2013-08-13 19:04:00,79.6,79.6,29.73,East,100,0.0,0.0,100,0.55,,---,1.40,VWS V14.01,2013-08-13 23:04:00,
2013-08-13 19:05:00,79.8,79.8,29.73,East,99,0.0,0.0,100,0.55,,---,1.40,VWS V14.01,2013-08-13 23:05:00,
2013-08-13 19:06:00,79.8,79.8,29.73,East,100,0.0,0.0,100,0.55,,---,1.40,VWS V14.01,2013-08-13 23:06:00,
2013-08-13 19:07:00,79.8,79.8,29.73,East,100,0.0,0.0,100,0.55,,---,1.40,VWS V14.01,2013-08-13 23:07:00,
2013-08-13 19:08:00,79.6,79.6,29.73,East,99,0.0,0.0,100,0.55,,---,1.40,VWS V14.01,2013-08-13 23:08:00,
2013-08-13 19:09:00,79.6,79.6,29.73,East,100,0.0,0.0,100,0.55,,---,1.40,VWS V14.01,2013-08-13 23:09:00,
2013-08-13 19:10:00,79.4,79.4,29.73,East,100,0.0,0.0,100,0.55,,---,1.40,VWS V14.01,2013-08-13 23:10:00,
2013-08-13 19:11:00,79.4,79.4,29.73,East,100,0.0,0.0,100,0.12,,---,1.40,VWS V14.01,2013-08-13 23:11:00,
2013-08-13 19:12:00,79.2,79.2,29.73,NNW,339,0.0,0.0,100,0.12,,---,1.40,VWS V14.01,2013-08-13 23:12:00,
2013-08-13 19:13:00,79.0,79.0,29.73,NNW,339,0.0,3.0,100,0.12,,---,1.40,VWS V14.01,2013-08-13 23:13:00,
2013-08-13 19:14:00,79.0,79.0,29.73,NNW,339,0.0,3.0,100,0.12,,---,1.40,VWS V14.01,2013-08-13 23:14:00,
2013-08-13 19:15:00,79.0,79.0,29.75,NNW,339,0.0,3.0,100,0.12,,---,1.40,VWS V14.01,2013-08-13 23:15:00,
2013-08-13 19:16:00,78.8,78.8,29.75,NNW,339,0.0,3.0,100,0.12,,---,1.40,VWS V14.01,2013-08-13 23:16:00,
2013-08-13 19:17:00,78.8,78.8,29.75,NNW,343,0.0,3.0,100,0.12,,---,1.40,VWS V14.01,2013-08-13 23:17:00,
2013-08-13 19:18:00,78.8,78.8,29.75,NNW,343,0.0,3.0,100,0.12,,---,1.40,VWS V14.01,2013-08-13 23:18:00,
2013-08-13 19:19:00,78.6,78.6,29.75,NNW,343,0.0,3.0,100,0.12,,---,1.40,VWS V14.01,2013-08-13 23:19:00,
2013-08-13 19:20:00,78.6,78.6,29.75,NNW,343,0.0,3.0,100,0.12,,---,1.40,VWS V14.01,2013-08-13 23:20:00,
2013-08-13 19:21:00,78.5,78.5,29.75,NNW,343,0.0,0.0,100,0.00,,---,1.40,VWS V14.01,2013-08-13 23:21:00,
2013-08-13 19:22:00,78.5,78.5,29.75,SSW,203,0.0,0.0,100,0.00,,---,1.40,VWS V14.01,2013-08-13 23:22:00,
2013-08-13 19:23:00,78.5,78.5,29.75,SSW,212,0.0,0.0,100,0.00,,---,1.40,VWS V14.01,2013-08-13 23:23:00,
2013-08-13 19:24:00,78.3,78.3,29.75,East,86,0.0,0.0,100,0.00,,---,1.40,VWS V14.01,2013-08-13 23:24:00,
2013-08-13 19:25:00,78.3,78.3,29.75,NW,325,6.0,6.0,100,0.00,,---,1.40,VWS V14.01,2013-08-13 23:25:00,
2013-08-13 19:26:00,78.1,78.1,29.75,NW,304,1.0,7.0,100,0.05,,---,1.45,VWS V14.01,2013-08-13 23:26:00,
2013-08-13 19:27:00,77.9,77.6,29.75,North,354,0.0,8.0,99,0.06,,---,1.46,VWS V14.01,2013-08-13 23:27:00,
2013-08-13 19:28:00,77.6,77.3,29.75,North,0,2.0,11.0,99,0.13,,---,1.53,VWS V14.01,2013-08-13 23:28:00,
2013-08-13 19:29:00,77.6,77.3,29.75,West,280,8.0,11.0,99,0.16,,---,1.56,VWS V14.01,2013-08-13 23:29:00,
2013-08-13 19:30:00,77.2,76.9,29.77,NNW,342,0.0,11.0,99,0.24,,---,1.64,VWS V14.01,2013-08-13 23:30:00,
2013-08-13 19:31:00,77.0,76.7,29.77,NW,311,1.0,6.0,99,0.26,,---,1.66,VWS V14.01,2013-08-13 23:31:00,
2013-08-13 19:32:00,76.8,76.5,29.77,NW,305,0.0,6.0,99,0.46,,---,1.86,VWS V14.01,2013-08-13 23:32:00,
2013-08-13 19:33:00,76.7,76.4,29.77,East,95,2.0,6.0,99,0.48,,---,1.88,VWS V14.01,2013-08-13 23:33:00,
2013-08-13 19:34:00,76.5,76.2,29.77,East,96,0.0,6.0,99,0.56,,---,1.96,VWS V14.01,2013-08-13 23:34:00,
2013-08-13 19:35:00,76.5,76.2,29.77,North,0,5.0,7.0,99,0.60,,---,2.00,VWS V14.01,2013-08-13 23:35:00,
2013-08-13 19:36:00,76.3,76.0,29.77,North,8,0.0,7.0,99,0.61,,---,2.01,VWS V14.01,2013-08-13 23:36:00,
2013-08-13 19:37:00,76.1,75.8,29.77,North,8,0.0,7.0,99,0.62,,---,2.02,VWS V14.01,2013-08-13 23:37:00,
2013-08-13 19:38:00,76.1,75.8,29.77,North,8,0.0,7.0,99,0.62,,---,2.02,VWS V14.01,2013-08-13 23:38:00,
2013-08-13 19:39:00,76.0,75.7,29.77,NNE,14,0.0,7.0,99,0.63,,---,2.03,VWS V14.01,2013-08-13 23:39:00,
2013-08-13 19:40:00,76.0,75.7,29.77,SSW,196,0.0,7.0,99,0.64,,---,2.04,VWS V14.01,2013-08-13 23:40:00,
2013-08-13 19:41:00,75.8,75.5,29.77,SSW,196,0.0,0.0,99,0.65,,---,2.05,VWS V14.01,2013-08-13 23:41:00,
2013-08-13 19:42:00,75.8,75.8,29.77,NE,56,0.0,0.0,100,0.66,,---,2.06,VWS V14.01,2013-08-13 23:42:00,
2013-08-13 19:43:00,75.8,75.8,29.77,SE,126,0.0,2.0,100,0.67,,---,2.07,VWS V14.01,2013-08-13 23:43:00,
2013-08-13 19:44:00,75.6,75.6,29.77,SE,126,0.0,2.0,100,0.67,,---,2.07,VWS V14.01,2013-08-13 23:44:00,
2013-08-13 19:45:00,75.6,75.6,29.75,SE,126,0.0,2.0,100,0.67,,---,2.07,VWS V14.01,2013-08-13 23:45:00,
2013-08-13 19:46:00,75.6,75.6,29.75,SE,126,0.0,2.0,100,0.67,,---,2.07,VWS V14.01,2013-08-13 23:46:00,
2013-08-13 19:47:00,75.6,75.6,29.75,SE,126,0.0,2.0,100,0.67,,---,2.07,VWS V14.01,2013-08-13 23:47:00,
2013-08-13 19:48:00,75.6,75.6,29.75,SE,126,0.0,2.0,100,0.67,,---,2.07,VWS V14.01,2013-08-13 23:48:00,
2013-08-13 19:49:00,75.6,75.6,29.75,SE,126,0.0,2.0,100,0.67,,---,2.07,VWS V14.01,2013-08-13 23:49:00,
2013-08-13 19:50:00,75.6,75.6,29.75,SE,126,0.0,2.0,100,0.67,,---,2.07,VWS V14.01,2013-08-13 23:50:00,
2013-08-13 19:51:00,75.6,75.6,29.75,SE,126,0.0,0.0,100,0.67,,---,2.07,VWS V14.01,2013-08-13 23:51:00,
2013-08-13 19:52:00,75.6,75.6,29.75,SE,126,0.0,0.0,100,0.67,,---,2.07,VWS V14.01,2013-08-13 23:52:00,
2013-08-13 19:53:00,75.4,75.4,29.75,SE,126,0.0,0.0,100,0.67,,---,2.07,VWS V14.01,2013-08-13 23:53:00,
2013-08-13 19:54:00,75.4,75.4,29.75,SE,126,0.0,0.0,100,0.67,,---,2.07,VWS V14.01,2013-08-13 23:54:00,
2013-08-13 19:55:00,75.4,75.4,29.75,SE,126,0.0,0.0,100,0.67,,---,2.07,VWS V14.01,2013-08-13 23:55:00,
2013-08-13 19:56:00,75.4,75.4,29.75,SE,126,0.0,0.0,100,0.67,,---,2.07,VWS V14.01,2013-08-13 23:56:00,
2013-08-13 19:57:00,75.4,75.4,29.75,SE,126,0.0,0.0,100,0.67,,---,2.07,VWS V14.01,2013-08-13 23:57:00,
2013-08-13 19:58:00,75.4,75.4,29.75,SE,126,0.0,0.0,100,0.67,,---,2.07,VWS V14.01,2013-08-13 23:58:00,
2013-08-13 19:59:00,75.4,75.4,29.75,SE,126,0.0,0.0,100,0.67,,---,2.07,VWS V14.01,2013-08-13 23:59:00,
2013-08-13 20:00:00,75.4,75.4,29.74,SE,126,0.0,0.0,100,0.67,,---,2.07,VWS V14.01,2013-08-14 00:00:00,
2013-08-13 20:01:00,75.4,75.4,29.74,SE,126,0.0,0.0,100,0.67,,---,2.07,VWS V14.01,2013-08-14 00:01:00,
2013-08-13 20:02:00,75.4,75.4,29.74,SE,126,0.0,0.0,100,0.67,,---,2.07,VWS V14.01,2013-08-14 00:02:00,
2013-08-13 20:03:00,75.4,75.4,29.74,SE,126,0.0,0.0,100,0.67,,---,2.07,VWS V14.01,2013-08-14 00:03:00,
2013-08-13 20:04:00,75.4,75.4,29.74,SE,126,0.0,0.0,100,0.67,,---,2.07,VWS V14.01,2013-08-14 00:04:00,
2013-08-13 20:05:00,75.4,75.4,29.74,SE,126,0.0,0.0,100,0.67,,---,2.07,VWS V14.01,2013-08-14 00:05:00,
2013-08-13 20:06:00,75.4,75.4,29.74,SE,126,0.0,0.0,100,0.67,,---,2.07,VWS V14.01,2013-08-14 00:06:00,
2013-08-13 20:07:00,75.4,75.4,29.74,SE,126,0.0,0.0,100,0.67,,---,2.07,VWS V14.01,2013-08-14 00:07:00,
2013-08-13 20:08:00,75.4,75.4,29.74,SE,126,0.0,0.0,100,0.67,,---,2.07,VWS V14.01,2013-08-14 00:08:00,
2013-08-13 20:09:00,75.4,75.4,29.74,SE,126,0.0,0.0,100,0.67,,---,2.07,VWS V14.01,2013-08-14 00:09:00,
2013-08-13 20:10:00,75.4,75.4,29.74,SE,126,0.0,0.0,100,0.67,,---,2.07,VWS V14.01,2013-08-14 00:10:00,
2013-08-13 20:11:00,75.4,75.4,29.74,SE,126,0.0,0.0,100,0.67,,---,2.07,VWS V14.01,2013-08-14 00:11:00,
2013-08-13 20:12:00,75.4,75.4,29.74,SE,126,0.0,0.0,100,0.67,,---,2.07,VWS V14.01,2013-08-14 00:12:00,
2013-08-13 20:13:00,75.4,75.4,29.74,SE,126,0.0,0.0,100,0.67,,---,2.07,VWS V14.01,2013-08-14 00:13:00,
2013-08-13 20:14:00,75.4,75.4,29.74,SE,126,0.0,0.0,100,0.67,,---,2.07,VWS V14.01,2013-08-14 00:14:00,
2013-08-13 20:15:00,75.4,75.4,29.75,SE,126,0.0,0.0,100,0.67,,---,2.07,VWS V14.01,2013-08-14 00:15:00,
2013-08-13 20:16:00,75.4,75.4,29.75,SE,126,0.0,0.0,100,0.67,,---,2.07,VWS V14.01,2013-08-14 00:16:00,
2013-08-13 20:17:00,75.4,75.4,29.75,SE,126,0.0,0.0,100,0.67,,---,2.07,VWS V14.01,2013-08-14 00:17:00,
2013-08-13 20:18:00,75.4,75.4,29.75,SE,126,0.0,0.0,100,0.67,,---,2.07,VWS V14.01,2013-08-14 00:18:00,
2013-08-13 20:19:00,75.6,75.6,29.75,SE,126,0.0,0.0,100,0.67,,---,2.07,VWS V14.01,2013-08-14 00:19:00,
2013-08-13 20:20:00,75.4,75.4,29.75,SE,126,0.0,0.0,100,0.67,,---,2.07,VWS V14.01,2013-08-14 00:20:00,
2013-08-13 20:21:00,75.4,75.4,29.75,SE,126,0.0,0.0,100,0.67,,---,2.07,VWS V14.01,2013-08-14 00:21:00,
2013-08-13 20:22:00,75.4,75.4,29.75,SE,126,0.0,0.0,100,0.67,,---,2.07,VWS V14.01,2013-08-14 00:22:00,
2013-08-13 20:23:00,75.4,75.4,29.75,SE,126,0.0,0.0,100,0.67,,---,2.07,VWS V14.01,2013-08-14 00:23:00,
2013-08-13 20:24:00,75.4,75.4,29.75,SE,126,0.0,0.0,100,0.67,,---,2.07,VWS V14.01,2013-08-14 00:24:00,
2013-08-13 20:25:00,75.6,75.6,29.75,SE,126,0.0,0.0,100,0.67,,---,2.07,VWS V14.01,2013-08-14 00:25:00,
2013-08-13 20:26:00,75.6,75.6,29.75,SE,126,0.0,0.0,100,0.67,,---,2.07,VWS V14.01,2013-08-14 00:26:00,
2013-08-13 20:27:00,75.6,75.6,29.75,SE,126,0.0,0.0,100,0.67,,---,2.07,VWS V14.01,2013-08-14 00:27:00,
2013-08-13 20:28:00,75.6,75.6,29.75,SE,126,0.0,0.0,100,0.67,,---,2.07,VWS V14.01,2013-08-14 00:28:00,
2013-08-13 20:29:00,75.6,75.6,29.75,SE,126,0.0,0.0,100,0.67,,---,2.07,VWS V14.01,2013-08-14 00:29:00,
2013-08-13 20:30:00,75.6,75.6,29.75,SE,126,0.0,0.0,100,0.67,,---,2.07,VWS V14.01,2013-08-14 00:30:00,
2013-08-13 20:31:00,75.6,75.6,29.75,SE,126,0.0,0.0,100,0.43,,---,2.07,VWS V14.01,2013-08-14 00:31:00,
2013-08-13 20:32:00,75.6,75.6,29.75,SE,126,0.0,1.0,100,0.43,,---,2.07,VWS V14.01,2013-08-14 00:32:00,
2013-08-13 20:33:00,75.6,75.6,29.75,SE,126,0.0,1.0,100,0.43,,---,2.07,VWS V14.01,2013-08-14 00:33:00,
2013-08-13 20:34:00,75.6,75.6,29.75,SE,126,0.0,1.0,100,0.43,,---,2.07,VWS V14.01,2013-08-14 00:34:00,
2013-08-13 20:35:00,75.6,75.6,29.75,SE,126,0.0,1.0,100,0.43,,---,2.07,VWS V14.01,2013-08-14 00:35:00,
2013-08-13 20:36:00,75.8,75.8,29.75,SE,126,0.0,1.0,100,0.43,,---,2.07,VWS V14.01,2013-08-14 00:36:00,
2013-08-13 20:37:00,75.8,75.8,29.75,SE,126,0.0,1.0,100,0.43,,---,2.07,VWS V14.01,2013-08-14 00:37:00,
2013-08-13 20:38:00,75.8,75.8,29.75,SE,126,0.0,1.0,100,0.43,,---,2.07,VWS V14.01,2013-08-14 00:38:00,
2013-08-13 20:39:00,75.8,75.8,29.75,SE,126,0.0,1.0,100,0.43,,---,2.07,VWS V14.01,2013-08-14 00:39:00,
2013-08-13 20:40:00,75.8,75.8,29.75,SE,126,0.0,1.0,100,0.43,,---,2.07,VWS V14.01,2013-08-14 00:40:00,
2013-08-13 20:41:00,75.8,75.8,29.75,SE,126,0.0,0.0,100,0.03,,---,2.07,VWS V14.01,2013-08-14 00:41:00,
2013-08-13 20:42:00,75.8,75.8,29.75,SE,126,0.0,0.0,100,0.03,,---,2.07,VWS V14.01,2013-08-14 00:42:00,
2013-08-13 20:43:00,75.8,75.8,29.75,SE,126,0.0,0.0,100,0.03,,---,2.07,VWS V14.01,2013-08-14 00:43:00,
2013-08-13 20:44:00,75.8,75.8,29.75,SE,126,0.0,0.0,100,0.03,,---,2.07,VWS V14.01,2013-08-14 00:44:00,
2013-08-13 20:45:00,75.8,75.8,29.75,SE,126,0.0,0.0,100,0.03,,---,2.07,VWS V14.01,2013-08-14 00:45:00,
2013-08-13 20:46:00,75.8,75.8,29.75,SE,126,0.0,0.0,100,0.03,,---,2.07,VWS V14.01,2013-08-14 00:46:00,
2013-08-13 20:47:00,75.8,75.8,29.75,SE,126,0.0,0.0,100,0.03,,---,2.07,VWS V14.01,2013-08-14 00:47:00,
2013-08-13 20:48:00,75.8,75.8,29.75,SE,126,0.0,0.0,100,0.03,,---,2.07,VWS V14.01,2013-08-14 00:48:00,
2013-08-13 20:49:00,75.8,75.8,29.75,SE,126,0.0,0.0,100,0.03,,---,2.07,VWS V14.01,2013-08-14 00:49:00,
2013-08-13 20:50:00,75.8,75.8,29.75,SE,126,0.0,0.0,100,0.03,,---,2.07,VWS V14.01,2013-08-14 00:50:00,
2013-08-13 20:51:00,75.8,75.8,29.75,SE,126,0.0,0.0,100,0.00,,---,2.07,VWS V14.01,2013-08-14 00:51:00,
2013-08-13 20:52:00,76.0,76.0,29.75,SE,126,0.0,0.0,100,0.00,,---,2.07,VWS V14.01,2013-08-14 00:52:00,
2013-08-13 20:53:00,76.0,76.0,29.75,SE,126,0.0,0.0,100,0.00,,---,2.07,VWS V14.01,2013-08-14 00:53:00,
2013-08-13 20:54:00,76.0,76.0,29.75,SE,126,0.0,0.0,100,0.00,,---,2.07,VWS V14.01,2013-08-14 00:54:00,
2013-08-13 20:55:00,76.0,76.0,29.75,SE,126,0.0,0.0,100,0.00,,---,2.07,VWS V14.01,2013-08-14 00:55:00,
2013-08-13 20:56:00,76.0,76.0,29.75,SE,126,0.0,0.0,100,0.00,,---,2.07,VWS V14.01,2013-08-14 00:56:00,
2013-08-13 20:57:00,76.0,76.0,29.75,SE,126,0.0,0.0,100,0.00,,---,2.07,VWS V14.01,2013-08-14 00:57:00,
2013-08-13 20:58:00,76.0,76.0,29.75,SE,126,0.0,0.0,100,0.00,,---,2.07,VWS V14.01,2013-08-14 00:58:00,
2013-08-13 20:59:00,76.0,76.0,29.75,SE,126,0.0,0.0,100,0.00,,---,2.07,VWS V14.01,2013-08-14 00:59:00,
2013-08-13 21:00:00,76.0,76.0,29.75,SE,126,0.0,0.0,100,0.00,,---,2.07,VWS V14.01,2013-08-14 01:00:00,
2013-08-13 21:01:00,76.0,76.0,29.75,SE,126,0.0,0.0,100,0.00,,---,2.07,VWS V14.01,2013-08-14 01:01:00,
2013-08-13 21:02:00,76.0,76.0,29.75,SE,126,0.0,0.0,100,0.00,,---,2.07,VWS V14.01,2013-08-14 01:02:00,
2013-08-13 21:03:00,76.0,76.0,29.75,SE,126,0.0,0.0,100,0.00,,---,2.07,VWS V14.01,2013-08-14 01:03:00,
2013-08-13 21:04:00,76.0,76.0,29.75,SE,126,0.0,0.0,100,0.00,,---,2.07,VWS V14.01,2013-08-14 01:04:00,
2013-08-13 21:05:00,76.0,76.0,29.75,SE,126,0.0,0.0,100,0.00,,---,2.07,VWS V14.01,2013-08-14 01:05:00,
2013-08-13 21:06:00,76.0,76.0,29.75,SE,126,0.0,0.0,100,0.00,,---,2.07,VWS V14.01,2013-08-14 01:06:00,
2013-08-13 21:07:00,76.0,76.0,29.75,SE,126,0.0,0.0,100,0.00,,---,2.07,VWS V14.01,2013-08-14 01:07:00,
2013-08-13 21:08:00,76.0,76.0,29.75,SE,126,0.0,0.0,100,0.00,,---,2.07,VWS V14.01,2013-08-14 01:08:00,
2013-08-13 21:09:00,76.0,76.0,29.75,SE,126,0.0,0.0,100,0.00,,---,2.07,VWS V14.01,2013-08-14 01:09:00,
2013-08-13 21:10:00,76.0,76.0,29.75,SE,126,0.0,0.0,100,0.00,,---,2.07,VWS V14.01,2013-08-14 01:10:00,
2013-08-13 21:11:00,76.0,76.0,29.75,SE,124,0.0,0.0,100,0.00,,---,2.07,VWS V14.01,2013-08-14 01:11:00,
2013-08-13 21:12:00,76.0,76.0,29.75,ESE,123,0.0,0.0,100,0.00,,---,2.07,VWS V14.01,2013-08-14 01:12:00,
2013-08-13 21:13:00,76.0,76.0,29.75,ESE,123,0.0,0.0,100,0.00,,---,2.07,VWS V14.01,2013-08-14 01:13:00,
2013-08-13 21:14:00,76.0,76.0,29.75,ESE,121,0.0,0.0,100,0.00,,---,2.07,VWS V14.01,2013-08-14 01:14:00,
2013-08-13 21:15:00,76.0,76.0,29.76,ESE,121,0.0,0.0,100,0.00,,---,2.07,VWS V14.01,2013-08-14 01:15:00,
2013-08-13 21:16:00,76.0,76.0,29.76,ESE,121,0.0,0.0,100,0.00,,---,2.07,VWS V14.01,2013-08-14 01:16:00,
2013-08-13 21:17:00,76.0,76.0,29.76,ESE,121,0.0,0.0,100,0.00,,---,2.07,VWS V14.01,2013-08-14 01:17:00,
2013-08-13 21:18:00,76.0,76.0,29.76,ESE,121,0.0,0.0,100,0.00,,---,2.07,VWS V14.01,2013-08-14 01:18:00,
2013-08-13 21:19:00,76.0,76.0,29.76,ESE,121,0.0,0.0,100,0.00,,---,2.07,VWS V14.01,2013-08-14 01:19:00,
2013-08-13 21:20:00,76.0,76.0,29.76,ESE,121,0.0,0.0,100,0.00,,---,2.07,VWS V14.01,2013-08-14 01:20:00,
2013-08-13 21:21:00,76.0,76.0,29.76,ESE,121,0.0,0.0,100,0.00,,---,2.07,VWS V14.01,2013-08-14 01:21:00,
2013-08-13 21:22:00,76.0,76.0,29.76,ESE,120,0.0,0.0,100,0.00,,---,2.07,VWS V14.01,2013-08-14 01:22:00,
2013-08-13 21:23:00,76.0,76.0,29.76,ESE,114,0.0,0.0,100,0.00,,---,2.07,VWS V14.01,2013-08-14 01:23:00,
2013-08-13 21:24:00,76.0,76.0,29.76,ESE,112,0.0,0.0,100,0.00,,---,2.07,VWS V14.01,2013-08-14 01:24:00,
2013-08-13 21:25:00,76.0,76.0,29.76,ESE,112,0.0,0.0,100,0.00,,---,2.07,VWS V14.01,2013-08-14 01:25:00,
2013-08-13 21:26:00,76.0,76.0,29.76,ESE,112,0.0,0.0,100,0.00,,---,2.07,VWS V14.01,2013-08-14 01:26:00,
2013-08-13 21:27:00,76.0,76.0,29.76,ESE,112,0.0,0.0,100,0.00,,---,2.07,VWS V14.01,2013-08-14 01:27:00,
2013-08-13 21:28:00,76.0,76.0,29.76,ESE,112,0.0,0.0,100,0.00,,---,2.07,VWS V14.01,2013-08-14 01:28:00,
2013-08-13 21:29:00,76.0,76.0,29.76,ESE,112,0.0,0.0,100,0.00,,---,2.07,VWS V14.01,2013-08-14 01:29:00,
2013-08-13 21:30:00,76.0,76.0,29.76,ESE,112,0.0,0.0,100,0.00,,---,2.07,VWS V14.01,2013-08-14 01:30:00,
2013-08-13 21:31:00,76.0,76.0,29.76,ESE,112,0.0,0.0,100,0.00,,---,2.07,VWS V14.01,2013-08-14 01:31:00,
2013-08-13 21:32:00,76.0,76.0,29.76,ESE,112,0.0,0.0,100,0.00,,---,2.07,VWS V14.01,2013-08-14 01:32:00,
2013-08-13 21:33:00,76.0,76.0,29.76,ESE,112,0.0,0.0,100,0.00,,---,2.07,VWS V14.01,2013-08-14 01:33:00,
2013-08-13 21:34:00,76.0,76.0,29.76,ESE,112,0.0,0.0,100,0.00,,---,2.07,VWS V14.01,2013-08-14 01:34:00,
2013-08-13 21:35:00,76.0,76.0,29.76,ESE,112,0.0,0.0,100,0.00,,---,2.07,VWS V14.01,2013-08-14 01:35:00,
2013-08-13 21:36:00,76.0,76.0,29.76,ESE,112,0.0,0.0,100,0.00,,---,2.07,VWS V14.01,2013-08-14 01:36:00,
2013-08-13 21:37:00,76.0,76.0,29.76,ESE,112,0.0,0.0,100,0.00,,---,2.07,VWS V14.01,2013-08-14 01:37:00,
2013-08-13 21:38:00,76.1,76.1,29.76,ESE,112,0.0,0.0,100,0.00,,---,2.07,VWS V14.01,2013-08-14 01:38:00,
2013-08-13 21:39:00,76.1,76.1,29.76,ESE,112,0.0,0.0,100,0.00,,---,2.07,VWS V14.01,2013-08-14 01:39:00,
2013-08-13 21:40:00,76.1,76.1,29.76,ESE,112,0.0,0.0,100,0.00,,---,2.07,VWS V14.01,2013-08-14 01:40:00,
2013-08-13 21:41:00,76.1,76.1,29.76,ESE,112,0.0,0.0,100,0.00,,---,2.07,VWS V14.01,2013-08-14 01:41:00,
2013-08-13 21:42:00,76.1,76.1,29.76,ESE,112,0.0,0.0,100,0.00,,---,2.07,VWS V14.01,2013-08-14 01:42:00,
2013-08-13 21:43:00,76.1,76.1,29.76,ESE,112,0.0,0.0,100,0.00,,---,2.07,VWS V14.01,2013-08-14 01:43:00,
2013-08-13 21:44:00,76.1,76.1,29.76,ESE,112,0.0,0.0,100,0.00,,---,2.07,VWS V14.01,2013-08-14 01:44:00,
2013-08-13 21:45:00,76.1,76.1,29.76,ESE,112,0.0,0.0,100,0.00,,---,2.07,VWS V14.01,2013-08-14 01:45:00,
2013-08-13 21:46:00,76.1,76.1,29.76,ESE,112,0.0,0.0,100,0.00,,---,2.07,VWS V14.01,2013-08-14 01:46:00,
2013-08-13 21:47:00,76.1,76.1,29.76,ESE,112,0.0,0.0,100,0.00,,---,2.07,VWS V14.01,2013-08-14 01:47:00,
2013-08-13 21:48:00,76.1,76.1,29.76,ESE,112,0.0,0.0,100,0.00,,---,2.07,VWS V14.01,2013-08-14 01:48:00,
2013-08-13 21:49:00,76.1,76.1,29.76,ESE,112,0.0,0.0,100,0.00,,---,2.07,VWS V14.01,2013-08-14 01:49:00,
2013-08-13 21:50:00,76.1,76.1,29.76,ESE,112,0.0,0.0,100,0.00,,---,2.07,VWS V14.01,2013-08-14 01:50:00,
2013-08-13 21:51:00,76.1,76.1,29.76,ESE,112,0.0,0.0,100,0.00,,---,2.07,VWS V14.01,2013-08-14 01:51:00,
2013-08-13 21:52:00,76.1,76.1,29.76,ESE,112,0.0,0.0,100,0.00,,---,2.07,VWS V14.01,2013-08-14 01:52:00,
2013-08-13 21:53:00,76.1,76.1,29.76,ESE,112,0.0,0.0,100,0.00,,---,2.07,VWS V14.01,2013-08-14 01:53:00,
2013-08-13 21:54:00,76.1,76.1,29.76,ESE,112,0.0,0.0,100,0.00,,---,2.07,VWS V14.01,2013-08-14 01:54:00,
2013-08-13 21:55:00,76.1,76.1,29.76,ESE,112,0.0,0.0,100,0.00,,---,2.07,VWS V14.01,2013-08-14 01:55:00,
2013-08-13 21:56:00,76.1,76.1,29.76,ESE,112,0.0,0.0,100,0.00,,---,2.07,VWS V14.01,2013-08-14 01:56:00,
2013-08-13 21:57:00,76.1,76.1,29.76,ESE,112,0.0,0.0,100,0.00,,---,2.07,VWS V14.01,2013-08-14 01:57:00,
2013-08-13 21:58:00,76.1,76.1,29.76,ESE,112,0.0,0.0,100,0.00,,---,2.07,VWS V14.01,2013-08-14 01:58:00,
2013-08-13 21:59:00,76.1,76.1,29.76,ESE,112,0.0,0.0,100,0.00,,---,2.07,VWS V14.01,2013-08-14 01:59:00,
2013-08-13 22:00:00,76.1,76.1,29.76,ESE,112,0.0,0.0,100,0.00,,---,2.07,VWS V14.01,2013-08-14 02:00:00,
2013-08-13 22:01:00,76.1,76.1,29.76,ESE,112,0.0,0.0,100,0.00,,---,2.07,VWS V14.01,2013-08-14 02:01:00,
2013-08-13 22:02:00,76.1,76.1,29.76,ESE,112,0.0,0.0,100,0.00,,---,2.07,VWS V14.01,2013-08-14 02:02:00,
2013-08-13 22:03:00,76.1,76.1,29.76,ESE,112,0.0,0.0,100,0.00,,---,2.07,VWS V14.01,2013-08-14 02:03:00,
2013-08-13 22:04:00,76.1,76.1,29.76,ESE,112,0.0,0.0,100,0.00,,---,2.07,VWS V14.01,2013-08-14 02:04:00,
2013-08-13 22:05:00,76.1,76.1,29.76,ESE,112,0.0,0.0,100,0.00,,---,2.07,VWS V14.01,2013-08-14 02:05:00,
2013-08-13 22:06:00,76.1,76.1,29.76,ESE,112,0.0,0.0,100,0.00,,---,2.07,VWS V14.01,2013-08-14 02:06:00,
2013-08-13 22:07:00,76.1,76.1,29.76,ESE,112,0.0,0.0,100,0.00,,---,2.07,VWS V14.01,2013-08-14 02:07:00,
2013-08-13 22:08:00,76.1,76.1,29.76,ESE,112,0.0,0.0,100,0.00,,---,2.07,VWS V14.01,2013-08-14 02:08:00,
2013-08-13 22:09:00,76.1,76.1,29.76,ESE,112,0.0,0.0,100,0.00,,---,2.07,VWS V14.01,2013-08-14 02:09:00,
2013-08-13 22:10:00,76.1,76.1,29.76,ESE,112,0.0,0.0,100,0.00,,---,2.07,VWS V14.01,2013-08-14 02:10:00,
2013-08-13 22:11:00,76.1,76.1,29.76,ESE,112,0.0,0.0,100,0.00,,---,2.07,VWS V14.01,2013-08-14 02:11:00,
2013-08-13 22:12:00,76.1,76.1,29.76,ESE,112,0.0,0.0,100,0.00,,---,2.07,VWS V14.01,2013-08-14 02:12:00,
2013-08-13 22:13:00,76.1,76.1,29.76,ESE,112,0.0,0.0,100,0.00,,---,2.07,VWS V14.01,2013-08-14 02:13:00,
2013-08-13 22:14:00,76.1,76.1,29.76,ESE,112,0.0,0.0,100,0.00,,---,2.07,VWS V14.01,2013-08-14 02:14:00,
2013-08-13 22:15:00,76.1,76.1,29.75,ESE,112,0.0,0.0,100,0.00,,---,2.07,VWS V14.01,2013-08-14 02:15:00,
2013-08-13 22:16:00,76.1,76.1,29.75,ESE,112,0.0,0.0,100,0.00,,---,2.07,VWS V14.01,2013-08-14 02:16:00,
2013-08-13 22:17:00,76.1,76.1,29.75,ESE,112,0.0,0.0,100,0.00,,---,2.07,VWS V14.01,2013-08-14 02:17:00,
2013-08-13 22:18:00,76.1,76.1,29.75,ESE,112,0.0,0.0,100,0.00,,---,2.07,VWS V14.01,2013-08-14 02:18:00,
2013-08-13 22:20:00,76.1,76.1,29.75,ESE,112,0.0,0.0,100,0.00,,---,2.07,VWS V14.01,2013-08-14 02:20:00,
2013-08-13 22:30:00,76.1,76.1,29.76,North,0,0.0,0.0,100,0.00,,---,0.00,VWS V14.01,2013-08-14 02:30:00,
2013-08-13 22:40:00,76.1,76.1,29.76,North,0,0.0,0.0,100,0.00,,---,0.00,VWS V14.01,2013-08-14 02:40:00,
2013-08-13 22:50:00,76.1,76.1,29.76,North,0,0.0,0.0,100,0.00,,---,0.00,VWS V14.01,2013-08-14 02:50:00,
2013-08-13 23:00:00,76.1,76.1,29.76,North,0,0.0,0.0,100,0.00,,---,0.00,VWS V14.01,2013-08-14 03:00:00,
2013-08-13 23:10:00,76.1,76.1,29.76,North,0,0.0,0.0,100,0.00,,---,0.00,VWS V14.01,2013-08-14 03:10:00,
2013-08-13 23:20:00,76.3,76.3,29.76,North,0,0.0,0.0,100,0.00,,---,0.00,VWS V14.01,2013-08-14 03:20:00,
2013-08-13 23:30:00,76.3,76.3,29.76,North,0,0.0,0.0,100,0.00,,---,0.00,VWS V14.01,2013-08-14 03:30:00,
2013-08-13 23:40:00,76.3,76.3,29.76,North,0,0.0,0.0,100,0.00,,---,0.00,VWS V14.01,2013-08-14 03:40:00,
2013-08-13 23:50:00,76.1,76.1,29.76,North,0,0.0,0.0,100,0.00,,---,0.00,VWS V14.01,2013-08-14 03:50:00,